Air Quality Table

TIMESTAMP NO2 O3 PM2.5 TEMP HUM AIRPRES WS WD NO
2022-08-20 01:00 1.33 µg/m3 86.24 µg/m3 1.33 µg/m3 25.79 °C N/A 1,000.29 mbar 1.93 m/s 346.49 Deg 0.55 µg/m3
2022-08-20 00:00 2.11 µg/m3 83.54 µg/m3 1.63 µg/m3 26.09 °C N/A 1,000.46 mbar 2.38 m/s 339.82 Deg 0.57 µg/m3
2022-08-19 23:00 2.13 µg/m3 84.45 µg/m3 2.65 µg/m3 26.56 °C N/A 1,000.41 mbar 2.46 m/s 256 Deg 0.46 µg/m3
2022-08-19 22:00 2.49 µg/m3 85.52 µg/m3 3.69 µg/m3 26.96 °C N/A 1,000.09 mbar 2.79 m/s 256.58 Deg 0.52 µg/m3
2022-08-19 21:00 3.63 µg/m3 85.48 µg/m3 4.96 µg/m3 27.29 °C N/A 1,000.03 mbar 2.43 m/s 348.14 Deg 0.52 µg/m3
2022-08-19 20:00 5.2 µg/m3 86.23 µg/m3 5.24 µg/m3 27.61 °C N/A 999.50 mbar 1.78 m/s 330.27 Deg 0.49 µg/m3
2022-08-19 19:00 3.61 µg/m3 89.47 µg/m3 6.94 µg/m3 28.34 °C N/A 998.77 mbar 1.97 m/s 335.4 Deg 0.59 µg/m3
2022-08-19 18:00 4.18 µg/m3 90.11 µg/m3 9.04 µg/m3 29.52 °C N/A 998.57 mbar 1.83 m/s 329.27 Deg 0.73 µg/m3
2022-08-19 17:00 5.31 µg/m3 88.74 µg/m3 10.25 µg/m3 29.94 °C N/A 998.74 mbar 2.23 m/s 345.53 Deg 0.69 µg/m3
2022-08-19 16:00 5.74 µg/m3 90.2 µg/m3 12.33 µg/m3 31.29 °C N/A 998.49 mbar 2.19 m/s 173.6 Deg 0.94 µg/m3
2022-08-19 15:00 4.71 µg/m3 89.12 µg/m3 12.94 µg/m3 31.99 °C N/A 998.41 mbar 1.99 m/s 328.47 Deg 1.06 µg/m3
2022-08-19 14:00 4.03 µg/m3 84.74 µg/m3 10.39 µg/m3 31.66 °C N/A 998.77 mbar 1.86 m/s 332.88 Deg 0.84 µg/m3
2022-08-19 13:00 4.52 µg/m3 84.37 µg/m3 15.47 µg/m3 30.79 °C N/A 998.86 mbar 1.77 m/s 333.87 Deg 0.74 µg/m3
2022-08-19 12:00 6.23 µg/m3 84.96 µg/m3 14.32 µg/m3 32.18 °C N/A 998.81 mbar 1.37 m/s 237.43 Deg 1.09 µg/m3
2022-08-19 11:00 6.01 µg/m3 80.58 µg/m3 12.52 µg/m3 31 °C N/A 999.38 mbar 1.36 m/s 18.26 Deg 0.98 µg/m3
2022-08-19 10:00 5.75 µg/m3 76.89 µg/m3 14.17 µg/m3 30.48 °C N/A 999.37 mbar 1.45 m/s 256.65 Deg 1.08 µg/m3
2022-08-19 09:00 5.31 µg/m3 70.5 µg/m3 9.97 µg/m3 30.24 °C N/A 999.41 mbar 1.5 m/s 323.94 Deg 0.84 µg/m3
2022-08-19 08:00 7.11 µg/m3 60.89 µg/m3 8.48 µg/m3 29.43 °C N/A 998.90 mbar 1.05 m/s 339.18 Deg 0.78 µg/m3
2022-08-19 07:00 12.72 µg/m3 49.72 µg/m3 9.16 µg/m3 28.69 °C N/A 998.76 mbar 0.93 m/s 304.03 Deg 0.29 µg/m3
2022-08-19 06:00 21.32 µg/m3 25.81 µg/m3 7.98 µg/m3 27.38 °C N/A 998.42 mbar 0.52 m/s 278.38 Deg 0.97 µg/m3
2022-08-19 05:00 11.2 µg/m3 39.18 µg/m3 8.21 µg/m3 27.63 °C N/A 998.18 mbar 0.46 m/s 223.02 Deg 0.72 µg/m3
2022-08-19 04:00 6.06 µg/m3 41.53 µg/m3 6.09 µg/m3 27.44 °C N/A 997.92 mbar 0.58 m/s 251.55 Deg 0.82 µg/m3
2022-08-19 03:00 13.01 µg/m3 36.17 µg/m3 6.96 µg/m3 27.49 °C N/A 997.80 mbar 0.83 m/s 211.12 Deg 5.61 µg/m3
2022-08-19 02:00 4.08 µg/m3 49.88 µg/m3 7.32 µg/m3 29.14 °C N/A 998.55 mbar 0.67 m/s 298.47 Deg 1.32 µg/m3
2022-08-19 01:00 3.43 µg/m3 53.46 µg/m3 6.74 µg/m3 29.17 °C N/A 998.45 mbar 1.26 m/s 195.78 Deg 0.57 µg/m3
2022-08-19 00:00 3.38 µg/m3 54.44 µg/m3 6.26 µg/m3 29.25 °C N/A 997.79 mbar 1.48 m/s 209.39 Deg 0.64 µg/m3
2022-08-18 23:00 3.15 µg/m3 54.36 µg/m3 7.17 µg/m3 29.22 °C N/A 997.95 mbar 1.64 m/s 222.28 Deg 0.59 µg/m3
2022-08-18 22:00 3.99 µg/m3 57.12 µg/m3 7.32 µg/m3 29.87 °C N/A 997.80 mbar 1.71 m/s 193.65 Deg 0.51 µg/m3
2022-08-18 21:00 5.56 µg/m3 56.28 µg/m3 7.64 µg/m3 30.07 °C N/A 997.78 mbar 1.91 m/s 176.17 Deg 0.6 µg/m3
2022-08-18 20:00 7.36 µg/m3 56.26 µg/m3 8.65 µg/m3 30.22 °C N/A 997.72 mbar 2.07 m/s 186.33 Deg 0.95 µg/m3
2022-08-18 19:00 9.69 µg/m3 57.98 µg/m3 9.65 µg/m3 31.25 °C N/A 997.45 mbar 2.05 m/s 183.68 Deg 1.25 µg/m3
2022-08-18 18:00 9.01 µg/m3 64.45 µg/m3 9.69 µg/m3 32.58 °C N/A 997.64 mbar 2.58 m/s 185.82 Deg 1.76 µg/m3
2022-08-18 17:00 7.81 µg/m3 66.45 µg/m3 10.33 µg/m3 33.65 °C N/A 998.01 mbar 2.61 m/s 194.15 Deg 1.8 µg/m3
2022-08-18 16:00 7.45 µg/m3 65.18 µg/m3 9.48 µg/m3 33.66 °C N/A 998.33 mbar 2.98 m/s 201.33 Deg 1.84 µg/m3
2022-08-18 15:00 6.39 µg/m3 62.29 µg/m3 11.92 µg/m3 33.23 °C N/A 998.74 mbar 2.62 m/s 192.98 Deg 1.91 µg/m3
2022-08-18 14:00 6.44 µg/m3 66.94 µg/m3 11.84 µg/m3 34.62 °C N/A 999.15 mbar 3.06 m/s 206.17 Deg 1.59 µg/m3
2022-08-18 13:00 7.46 µg/m3 65.55 µg/m3 14.36 µg/m3 34.75 °C N/A 999.51 mbar 2.97 m/s 192.15 Deg 2.39 µg/m3
2022-08-18 12:00 10.85 µg/m3 65.78 µg/m3 15.96 µg/m3 35.55 °C N/A 999.68 mbar 2.77 m/s 192.97 Deg 3.01 µg/m3
2022-08-18 11:00 13.1 µg/m3 67.47 µg/m3 14.96 µg/m3 35.52 °C N/A 999.78 mbar 2.54 m/s 198.13 Deg 2.7 µg/m3
2022-08-18 10:00 11.88 µg/m3 65.52 µg/m3 16.59 µg/m3 34.77 °C N/A 1,000.27 mbar 1.72 m/s 192.81 Deg 2.73 µg/m3
2022-08-18 09:00 9.1 µg/m3 62.83 µg/m3 14.28 µg/m3 32.96 °C N/A 1,000.06 mbar 1.96 m/s 218.88 Deg 2.22 µg/m3
2022-08-18 08:00 12.35 µg/m3 55.35 µg/m3 8.38 µg/m3 31.47 °C N/A 1,000.17 mbar 1.81 m/s 225.25 Deg 2.86 µg/m3
2022-08-18 07:00 10.82 µg/m3 55.26 µg/m3 7.06 µg/m3 29.05 °C N/A 1,000.12 mbar 1.43 m/s 224.08 Deg 1.66 µg/m3
2022-08-18 06:00 13.51 µg/m3 42.58 µg/m3 5.83 µg/m3 27.82 °C N/A 999.59 mbar 1.44 m/s 206.92 Deg 1.56 µg/m3
2022-08-18 05:00 12.67 µg/m3 38.62 µg/m3 5.77 µg/m3 27.71 °C N/A 999.35 mbar 1.22 m/s 195.13 Deg 0.97 µg/m3
2022-08-18 04:00 10.11 µg/m3 41.48 µg/m3 6.02 µg/m3 27.76 °C N/A 999.65 mbar 0.55 m/s 217.88 Deg 0.73 µg/m3
2022-08-18 03:00 13.96 µg/m3 47.11 µg/m3 9.89 µg/m3 28.09 °C N/A 999.62 mbar 1.16 m/s 173.05 Deg 6.87 µg/m3
2022-08-18 02:00 12.13 µg/m3 41.33 µg/m3 6.77 µg/m3 28.25 °C N/A 999.71 mbar 1.41 m/s 183.5 Deg 1.16 µg/m3
2022-08-18 01:00 9.55 µg/m3 42.41 µg/m3 7.4 µg/m3 28.45 °C N/A 999.95 mbar 1.35 m/s 178.72 Deg 0.51 µg/m3
2022-08-18 00:00 8.11 µg/m3 47.59 µg/m3 8.29 µg/m3 28.93 °C N/A 1,000.09 mbar 1.53 m/s 178.78 Deg 0.46 µg/m3
2022-08-17 23:00 8.74 µg/m3 46.88 µg/m3 8.17 µg/m3 29.1 °C N/A 1,000.29 mbar 1.5 m/s 181.82 Deg 0.63 µg/m3
2022-08-17 22:00 19.51 µg/m3 37.52 µg/m3 10.2 µg/m3 29.43 °C N/A 1,000.34 mbar 1.45 m/s 180.6 Deg 0.89 µg/m3
2022-08-17 21:00 17.28 µg/m3 37.44 µg/m3 9.06 µg/m3 30.02 °C N/A 1,000.29 mbar 1.5 m/s 176.55 Deg 0.98 µg/m3
2022-08-17 20:00 16.56 µg/m3 47.97 µg/m3 8.89 µg/m3 30.95 °C N/A 999.94 mbar 1.41 m/s 175.72 Deg 1.15 µg/m3
2022-08-17 19:00 12.95 µg/m3 55.46 µg/m3 11.9 µg/m3 31.95 °C N/A 999.59 mbar 1.77 m/s 179.42 Deg 1.7 µg/m3
2022-08-17 18:00 13.75 µg/m3 64.85 µg/m3 11.71 µg/m3 33.09 °C N/A 999.69 mbar 1.63 m/s 191.57 Deg 1.46 µg/m3
2022-08-17 17:00 17.33 µg/m3 103.76 µg/m3 14.32 µg/m3 34.19 °C N/A 999.87 mbar 1.64 m/s 226.42 Deg 1.18 µg/m3
2022-08-17 16:00 19.17 µg/m3 109.04 µg/m3 16.21 µg/m3 35.75 °C N/A 999.84 mbar 1.74 m/s 270.23 Deg 1.52 µg/m3
2022-08-17 15:00 17.92 µg/m3 116.76 µg/m3 15.43 µg/m3 36.27 °C N/A 999.86 mbar 1.65 m/s 182.22 Deg 1.39 µg/m3
2022-08-17 14:00 12.55 µg/m3 107.14 µg/m3 14.81 µg/m3 36.55 °C N/A 1,000.02 mbar 1.39 m/s 74.67 Deg 0.96 µg/m3
2022-08-17 13:00 18.01 µg/m3 109.64 µg/m3 15.43 µg/m3 37.04 °C N/A 1,000.11 mbar 1.14 m/s 162.84 Deg 1.73 µg/m3
2022-08-17 12:00 16.89 µg/m3 89.38 µg/m3 18.14 µg/m3 35.56 °C N/A 1,000.49 mbar 1.27 m/s 231.91 Deg 2.18 µg/m3
2022-08-17 11:00 10.25 µg/m3 88.88 µg/m3 18.72 µg/m3 36.69 °C N/A 1,000.69 mbar 0.96 m/s 244.52 Deg 1.06 µg/m3
2022-08-17 10:00 11.37 µg/m3 85.88 µg/m3 21.05 µg/m3 35.48 °C N/A 1,000.70 mbar 0.9 m/s 258.92 Deg 1.16 µg/m3
2022-08-17 09:00 28.73 µg/m3 69.27 µg/m3 16.19 µg/m3 33.58 °C N/A 1,000.82 mbar 0.7 m/s 244.81 Deg 3.03 µg/m3
2022-08-17 08:00 29.41 µg/m3 35.14 µg/m3 19.84 µg/m3 29.78 °C N/A 1,001.02 mbar 0.57 m/s 218.64 Deg 4.88 µg/m3
2022-08-17 07:00 40.51 µg/m3 11.79 µg/m3 11.05 µg/m3 27.72 °C N/A 1,000.78 mbar 0.29 m/s 233.73 Deg 21.55 µg/m3
2022-08-17 06:00 36.88 µg/m3 10.29 µg/m3 7.95 µg/m3 26.77 °C N/A 1,000.60 mbar 0.37 m/s 276.88 Deg 10.28 µg/m3
2022-08-17 05:00 26.06 µg/m3 14.68 µg/m3 5.75 µg/m3 26.92 °C N/A 1,000.41 mbar 0.4 m/s 195.6 Deg 1.74 µg/m3
2022-08-17 04:00 11.36 µg/m3 54.35 µg/m3 5.28 µg/m3 28 °C N/A 1,000.25 mbar 0.45 m/s 243.44 Deg 0.8 µg/m3
2022-08-17 03:00 16.29 µg/m3 67.84 µg/m3 5.96 µg/m3 27.54 °C N/A 1,000.38 mbar 0.66 m/s 313.06 Deg 6.2 µg/m3
2022-08-17 02:00 4.34 µg/m3 57.55 µg/m3 6.53 µg/m3 27.43 °C N/A 1,000.54 mbar 0.87 m/s 265.2 Deg 1.27 µg/m3
2022-08-17 01:00 14.95 µg/m3 45.4 µg/m3 6.6 µg/m3 27.77 °C N/A 1,001.03 mbar 1.32 m/s 254.23 Deg 0.72 µg/m3
2022-08-17 00:00 19.31 µg/m3 36.1 µg/m3 10.59 µg/m3 27.16 °C N/A 1,001.32 mbar 0.59 m/s 238.97 Deg 0.52 µg/m3
2022-08-16 23:00 28.58 µg/m3 17.29 µg/m3 8.23 µg/m3 27.66 °C N/A 1,001.42 mbar 0.65 m/s 238.08 Deg 5.63 µg/m3
2022-08-16 22:00 12.37 µg/m3 34.31 µg/m3 9.74 µg/m3 28.32 °C N/A 1,001.39 mbar 0.53 m/s 220.03 Deg 0.83 µg/m3
2022-08-16 21:00 11.53 µg/m3 45.97 µg/m3 8.29 µg/m3 28.98 °C N/A 1,001.24 mbar 0.81 m/s 235.93 Deg 0.74 µg/m3
2022-08-16 20:00 9.75 µg/m3 54.1 µg/m3 9.35 µg/m3 29.61 °C N/A 1,000.80 mbar 1.07 m/s 262.42 Deg 0.6 µg/m3
2022-08-16 19:00 8.11 µg/m3 77 µg/m3 7.87 µg/m3 31.44 °C N/A 1,000.23 mbar 0.83 m/s 286.32 Deg 0.65 µg/m3
2022-08-16 18:00 4.5 µg/m3 98.63 µg/m3 9.65 µg/m3 32.46 °C N/A 1,000.10 mbar 0.83 m/s 255.35 Deg 0.57 µg/m3
2022-08-16 17:00 3.92 µg/m3 86.77 µg/m3 10.03 µg/m3 32.88 °C N/A 1,000.26 mbar 1.33 m/s 292.15 Deg 0.72 µg/m3
2022-08-16 16:00 5.44 µg/m3 89.58 µg/m3 9.69 µg/m3 33.56 °C N/A 1,000.51 mbar 1.94 m/s 297.2 Deg 0.87 µg/m3
2022-08-16 15:00 5.15 µg/m3 86.02 µg/m3 10.33 µg/m3 33.83 °C N/A 1,000.55 mbar 1.93 m/s 255.78 Deg 0.86 µg/m3
2022-08-16 14:00 6.57 µg/m3 86.92 µg/m3 11.07 µg/m3 34.34 °C N/A 1,000.43 mbar 1.75 m/s 232.6 Deg 1.25 µg/m3
2022-08-16 13:00 8.13 µg/m3 87.28 µg/m3 11.63 µg/m3 34.38 °C N/A 1,000.37 mbar 2.06 m/s 230.12 Deg 1.63 µg/m3
2022-08-16 12:00 7.82 µg/m3 83.8 µg/m3 10.03 µg/m3 34.23 °C N/A 1,000.24 mbar 2.01 m/s 221.1 Deg 1.79 µg/m3
2022-08-16 11:00 7.7 µg/m3 73.31 µg/m3 2.2 µg/m3 33.07 °C N/A 1,000.21 mbar 1.55 m/s 226.33 Deg 2.05 µg/m3
2022-08-16 10:00 10.22 µg/m3 68.16 µg/m3 -0.22 µg/m3 32.32 °C N/A 1,000.36 mbar 1.46 m/s 223.09 Deg 4.54 µg/m3
2022-08-16 09:00 6.46 µg/m3 73.16 µg/m3 4.24 µg/m3 31.26 °C N/A 999.89 mbar 1.22 m/s 217.58 Deg 1.23 µg/m3
2022-08-16 08:00 7.9 µg/m3 79.22 µg/m3 7.7 µg/m3 29.24 °C N/A 999.53 mbar 1.58 m/s 208.92 Deg 1.44 µg/m3
2022-08-16 07:00 11.25 µg/m3 77.44 µg/m3 7.47 µg/m3 27.99 °C N/A 999.43 mbar 1.91 m/s 220.78 Deg 1.35 µg/m3
2022-08-16 06:00 15.31 µg/m3 67.42 µg/m3 4.81 µg/m3 27.18 °C N/A 999.51 mbar 1.47 m/s 235.12 Deg 1.27 µg/m3
2022-08-16 05:00 12.64 µg/m3 54.92 µg/m3 5.36 µg/m3 27.11 °C N/A 999.64 mbar 0.86 m/s 232.86 Deg 0.73 µg/m3
2022-08-16 04:00 7.77 µg/m3 53.94 µg/m3 5.11 µg/m3 27.05 °C N/A 999.71 mbar 0.7 m/s 216.32 Deg 0.65 µg/m3
2022-08-16 03:00 12.9 µg/m3 45.46 µg/m3 3.73 µg/m3 26.87 °C N/A 999.38 mbar 1.33 m/s 214.72 Deg 4.26 µg/m3
2022-08-16 02:00 8.94 µg/m3 45.6 µg/m3 5.39 µg/m3 27.21 °C N/A 1,000.08 mbar 0.66 m/s 199.3 Deg 1.25 µg/m3
2022-08-16 01:00 5.76 µg/m3 55.53 µg/m3 8.8 µg/m3 27.73 °C N/A 1,001.13 mbar 0.69 m/s 323.59 Deg 0.71 µg/m3
2022-08-16 00:00 6.86 µg/m3 54.81 µg/m3 5.64 µg/m3 27.82 °C N/A 1,001.66 mbar 0.89 m/s 323.47 Deg 0.56 µg/m3
2022-08-15 23:00 6.32 µg/m3 58.15 µg/m3 11.22 µg/m3 27.96 °C N/A 1,000.65 mbar 0.81 m/s 241.43 Deg 0.83 µg/m3
2022-08-15 22:00 7.41 µg/m3 60.77 µg/m3 7.42 µg/m3 28.11 °C N/A 999.82 mbar 1.39 m/s 200.39 Deg 1.18 µg/m3
2022-08-15 21:00 6.15 µg/m3 66.58 µg/m3 5.39 µg/m3 28.26 °C N/A 999.28 mbar 1.49 m/s 191.33 Deg 1.09 µg/m3
2022-08-15 20:00 7.15 µg/m3 72.39 µg/m3 5.77 µg/m3 28.46 °C N/A 998.28 mbar 1.82 m/s 177.63 Deg 1 µg/m3
2022-08-15 19:00 6.23 µg/m3 77.15 µg/m3 5.96 µg/m3 28.79 °C N/A 997.67 mbar 2.22 m/s 187.62 Deg 0.85 µg/m3
2022-08-15 18:00 4.74 µg/m3 82.68 µg/m3 6.3 µg/m3 29.53 °C N/A 997.63 mbar 2.46 m/s 192.13 Deg 0.83 µg/m3
2022-08-15 17:00 3.86 µg/m3 88.32 µg/m3 7.17 µg/m3 30.34 °C N/A 998.02 mbar 2.61 m/s 195.9 Deg 0.88 µg/m3
2022-08-15 16:00 3.44 µg/m3 87.87 µg/m3 8.82 µg/m3 30.77 °C N/A 998.24 mbar 2.26 m/s 205.78 Deg 0.87 µg/m3
2022-08-15 15:00 3.29 µg/m3 91.92 µg/m3 8.27 µg/m3 30.93 °C N/A 998.33 mbar 2.78 m/s 196.05 Deg 0.87 µg/m3
2022-08-15 14:00 3.12 µg/m3 99.81 µg/m3 6.6 µg/m3 30.96 °C N/A 998.53 mbar 2.82 m/s 204.85 Deg 0.68 µg/m3
2022-08-15 13:00 3.8 µg/m3 95.5 µg/m3 7.74 µg/m3 31.56 °C N/A 998.50 mbar 2.49 m/s 203.53 Deg 0.85 µg/m3
2022-08-15 12:00 4.5 µg/m3 95.92 µg/m3 9.16 µg/m3 31.8 °C N/A 998.64 mbar 1.85 m/s 193.35 Deg 0.83 µg/m3
2022-08-15 11:00 4.62 µg/m3 92.69 µg/m3 9.91 µg/m3 30.78 °C N/A 998.85 mbar 1.89 m/s 198.38 Deg 1.01 µg/m3
2022-08-15 10:00 4.47 µg/m3 94.27 µg/m3 7.64 µg/m3 30.28 °C N/A 998.82 mbar 1.62 m/s 176.65 Deg 1 µg/m3
2022-08-15 09:00 6.33 µg/m3 90.89 µg/m3 8.04 µg/m3 29.28 °C N/A 998.64 mbar 1.69 m/s 178.08 Deg 1.09 µg/m3
2022-08-15 08:00 10.84 µg/m3 79.98 µg/m3 8.25 µg/m3 28.19 °C N/A 998.40 mbar 2.13 m/s 162.25 Deg 1.54 µg/m3
2022-08-15 07:00 20.39 µg/m3 64.16 µg/m3 6.47 µg/m3 26.89 °C N/A 998.36 mbar 0.94 m/s 181.59 Deg 1.43 µg/m3
2022-08-15 06:00 13.57 µg/m3 74.31 µg/m3 9.59 µg/m3 26.29 °C N/A 997.73 mbar 1.42 m/s 159.17 Deg 0.79 µg/m3
2022-08-15 05:00 8.79 µg/m3 75.93 µg/m3 9.93 µg/m3 25.84 °C N/A 997.62 mbar 1.01 m/s 191.68 Deg 0.45 µg/m3
2022-08-15 04:00 11.9 µg/m3 62.77 µg/m3 9.5 µg/m3 25.95 °C N/A 997.70 mbar 0.79 m/s 25.59 Deg 0.38 µg/m3
2022-08-15 03:00 14.9 µg/m3 64.13 µg/m3 7.04 µg/m3 25.96 °C N/A 997.62 mbar 0.64 m/s 84.68 Deg 2.23 µg/m3
2022-08-15 02:00 9.38 µg/m3 68.47 µg/m3 15.34 µg/m3 26.28 °C N/A 997.82 mbar 0.47 m/s 237.83 Deg 0.61 µg/m3
2022-08-15 01:00 9.82 µg/m3 72.72 µg/m3 33.85 µg/m3 26.6 °C N/A 997.88 mbar 0.5 m/s 240.05 Deg 0.23 µg/m3
2022-08-15 00:00 10.95 µg/m3 77.15 µg/m3 19.08 µg/m3 27 °C N/A 998.07 mbar 0.47 m/s 338.36 Deg 0.21 µg/m3
2022-08-14 23:00 8.38 µg/m3 89.37 µg/m3 14.22 µg/m3 27.38 °C N/A 997.85 mbar 0.59 m/s 79.59 Deg 0.19 µg/m3
2022-08-14 22:00 9.26 µg/m3 86.08 µg/m3 7.81 µg/m3 27.5 °C N/A 997.85 mbar 0.79 m/s 181.43 Deg 0.45 µg/m3
2022-08-14 21:00 7.53 µg/m3 89.58 µg/m3 5.09 µg/m3 27.91 °C N/A 997.48 mbar 0.78 m/s 313.83 Deg 0.35 µg/m3
2022-08-14 20:00 5.5 µg/m3 94.96 µg/m3 4.39 µg/m3 28.27 °C N/A 996.82 mbar 1.25 m/s 311.93 Deg 0.32 µg/m3
2022-08-14 19:00 6.78 µg/m3 99.41 µg/m3 6.94 µg/m3 29.51 °C N/A 996.23 mbar 1.2 m/s 316.48 Deg 0.42 µg/m3
2022-08-14 18:00 5.64 µg/m3 99.98 µg/m3 7.34 µg/m3 31.23 °C N/A 995.87 mbar 1.22 m/s 315.12 Deg 0.72 µg/m3
2022-08-14 17:00 3.85 µg/m3 102.61 µg/m3 5.7 µg/m3 32.27 °C N/A 995.88 mbar 1.06 m/s 324.5 Deg 0.48 µg/m3
2022-08-14 16:00 3.23 µg/m3 98.03 µg/m3 6.04 µg/m3 32.69 °C N/A 996.18 mbar 1.06 m/s 245.08 Deg 0.53 µg/m3
2022-08-14 15:00 3.1 µg/m3 94.73 µg/m3 5.81 µg/m3 32.33 °C N/A 996.52 mbar 1.66 m/s 245.97 Deg 0.54 µg/m3
2022-08-14 14:00 2.72 µg/m3 89.89 µg/m3 4.69 µg/m3 32.35 °C N/A 996.96 mbar 1.27 m/s 322.57 Deg 0.61 µg/m3
2022-08-14 13:00 2.99 µg/m3 90.13 µg/m3 4.94 µg/m3 32.15 °C N/A 997.26 mbar 1.42 m/s 332.72 Deg 0.59 µg/m3
2022-08-14 12:00 2.65 µg/m3 89.32 µg/m3 3.41 µg/m3 31.68 °C N/A 997.67 mbar 1.48 m/s 322.1 Deg 0.56 µg/m3
2022-08-14 11:00 3.23 µg/m3 89.72 µg/m3 5 µg/m3 31.6 °C N/A 997.89 mbar 1.33 m/s 252.44 Deg 0.62 µg/m3
2022-08-14 10:00 2.67 µg/m3 89.05 µg/m3 7.38 µg/m3 31.27 °C N/A 997.95 mbar 1.53 m/s 327.82 Deg 0.63 µg/m3
2022-08-14 09:00 3.07 µg/m3 89.2 µg/m3 6.66 µg/m3 30.29 °C N/A 997.83 mbar 1.77 m/s 302.32 Deg 0.68 µg/m3
2022-08-14 08:00 3.83 µg/m3 87.29 µg/m3 4.2 µg/m3 29.33 °C N/A 997.42 mbar 1.55 m/s 301.69 Deg 0.72 µg/m3
2022-08-14 07:00 5.58 µg/m3 82.97 µg/m3 3.33 µg/m3 27.26 °C N/A 997.51 mbar 1.94 m/s 289.84 Deg 0.74 µg/m3
2022-08-14 06:00 3.2 µg/m3 79.28 µg/m3 2.5 µg/m3 26.4 °C N/A 997.83 mbar 1.19 m/s 296.82 Deg 0.58 µg/m3
2022-08-14 05:00 4.39 µg/m3 79.08 µg/m3 2.31 µg/m3 26.28 °C N/A 998.13 mbar 1.06 m/s 302.88 Deg 0.34 µg/m3
2022-08-14 04:00 3.51 µg/m3 79.51 µg/m3 3.03 µg/m3 26.38 °C N/A 998.42 mbar 1.34 m/s 292.38 Deg 0.41 µg/m3
2022-08-14 03:00 6.77 µg/m3 84.42 µg/m3 2.88 µg/m3 26.63 °C N/A 998.76 mbar 1.44 m/s 300.08 Deg 1.15 µg/m3
2022-08-14 02:00 1.91 µg/m3 84.81 µg/m3 2.75 µg/m3 26.73 °C N/A 999.17 mbar 1.37 m/s 307.02 Deg 0.51 µg/m3
2022-08-14 01:00 3.94 µg/m3 83.07 µg/m3 2.44 µg/m3 26.83 °C N/A 999.60 mbar 1.75 m/s 301.28 Deg 0.39 µg/m3
2022-08-14 00:00 3.27 µg/m3 84.74 µg/m3 3.79 µg/m3 26.84 °C N/A 999.95 mbar 1.44 m/s 312.16 Deg 0.36 µg/m3
2022-08-13 23:00 3.08 µg/m3 86.9 µg/m3 5.24 µg/m3 27.03 °C N/A 999.88 mbar 1.35 m/s 306.33 Deg 0.23 µg/m3
2022-08-13 22:00 2.95 µg/m3 90.5 µg/m3 4.73 µg/m3 27.22 °C N/A 999.87 mbar 1.95 m/s 298.15 Deg 0.39 µg/m3
2022-08-13 21:00 3.24 µg/m3 94.01 µg/m3 4.2 µg/m3 27.34 °C N/A 999.68 mbar 1.94 m/s 293.65 Deg 0.37 µg/m3
2022-08-13 20:00 4.52 µg/m3 92.31 µg/m3 4.94 µg/m3 27.57 °C N/A 999.62 mbar 1.88 m/s 288.53 Deg 0.4 µg/m3
2022-08-13 19:00 3.76 µg/m3 94.57 µg/m3 6.68 µg/m3 27.97 °C N/A 999.26 mbar 1.99 m/s 295.45 Deg 0.28 µg/m3
2022-08-13 18:00 3.12 µg/m3 96.52 µg/m3 4.49 µg/m3 29.06 °C N/A 999.20 mbar 2.19 m/s 287 Deg 0.43 µg/m3
2022-08-13 17:00 3.09 µg/m3 102.04 µg/m3 4.3 µg/m3 30.02 °C N/A 999.46 mbar 2.01 m/s 300.23 Deg 0.42 µg/m3
2022-08-13 16:00 2.55 µg/m3 100.29 µg/m3 6.51 µg/m3 30.05 °C N/A 999.99 mbar 1.85 m/s 314.35 Deg 0.54 µg/m3
2022-08-13 15:00 2.9 µg/m3 96.57 µg/m3 6.98 µg/m3 30 °C N/A 1,000.60 mbar 1.85 m/s 319.35 Deg 0.58 µg/m3
2022-08-13 14:00 3.23 µg/m3 96.77 µg/m3 4.24 µg/m3 30.34 °C N/A 1,000.79 mbar 1.73 m/s 320.2 Deg 0.53 µg/m3
2022-08-13 13:00 4.19 µg/m3 103.74 µg/m3 4.88 µg/m3 30.17 °C N/A 1,001.01 mbar 2.09 m/s 314.1 Deg 0.77 µg/m3
2022-08-13 12:00 4.53 µg/m3 105.35 µg/m3 4.69 µg/m3 30.06 °C N/A 1,001.35 mbar 1.89 m/s 317.28 Deg 0.63 µg/m3
2022-08-13 11:00 6.79 µg/m3 102.81 µg/m3 5.79 µg/m3 29.67 °C N/A 1,001.47 mbar 1.48 m/s 337.07 Deg 0.86 µg/m3
2022-08-13 10:00 7.39 µg/m3 101.11 µg/m3 5.98 µg/m3 29.17 °C N/A 1,001.27 mbar 1.5 m/s 326.82 Deg 1.07 µg/m3
2022-08-13 09:00 6.6 µg/m3 96.41 µg/m3 7.81 µg/m3 28.44 °C N/A 1,001.02 mbar 1.29 m/s 338.81 Deg 0.81 µg/m3
2022-08-13 08:00 13.13 µg/m3 87.38 µg/m3 12.45 µg/m3 27.44 °C N/A 1,000.86 mbar 0.98 m/s 322.39 Deg 0.82 µg/m3
2022-08-13 07:00 46.04 µg/m3 33.46 µg/m3 11.5 µg/m3 25.2 °C N/A 1,000.55 mbar 0.69 m/s 273.15 Deg 10.06 µg/m3
2022-08-13 06:00 28.19 µg/m3 41.22 µg/m3 9.33 µg/m3 23.86 °C N/A 1,000.47 mbar 0.31 m/s 299.41 Deg 0.56 µg/m3
2022-08-13 05:00 13.49 µg/m3 60.64 µg/m3 7.15 µg/m3 23.93 °C N/A 1,000.31 mbar 0.43 m/s 336.25 Deg 0.13 µg/m3
2022-08-13 04:00 15.66 µg/m3 69.04 µg/m3 6.07 µg/m3 24.28 °C N/A 1,000.41 mbar 0.73 m/s 339.43 Deg 0.2 µg/m3
2022-08-13 03:00 13.94 µg/m3 76.95 µg/m3 5.32 µg/m3 24.87 °C N/A 1,000.15 mbar 0.61 m/s 184.06 Deg 1.79 µg/m3
2022-08-13 02:00 7.83 µg/m3 89.08 µg/m3 3.67 µg/m3 25.56 °C N/A 1,000.26 mbar 1.02 m/s 25 Deg 0.55 µg/m3
2022-08-13 01:00 11.11 µg/m3 86.33 µg/m3 3.37 µg/m3 26.32 °C N/A 1,000.60 mbar 1.22 m/s 16.68 Deg 0.27 µg/m3
2022-08-13 00:00 12.75 µg/m3 81.42 µg/m3 4.64 µg/m3 25.88 °C N/A 1,000.58 mbar 0.98 m/s 259.21 Deg 0.25 µg/m3
2022-08-12 23:00 16.13 µg/m3 82.91 µg/m3 3.84 µg/m3 26.27 °C N/A 1,000.51 mbar 0.71 m/s 320.1 Deg 3.15 µg/m3
2022-08-12 22:00 5.54 µg/m3 98.08 µg/m3 5.53 µg/m3 26.14 °C N/A 1,000.40 mbar 1.06 m/s 327.6 Deg 0.28 µg/m3
2022-08-12 21:00 5.67 µg/m3 94.79 µg/m3 5.92 µg/m3 26.35 °C N/A 1,000.12 mbar 0.98 m/s 326.93 Deg 0.32 µg/m3
2022-08-12 20:00 6.95 µg/m3 99.13 µg/m3 5.05 µg/m3 26.56 °C N/A 999.79 mbar 0.87 m/s 328.23 Deg 0.23 µg/m3
2022-08-12 19:00 6.48 µg/m3 104.46 µg/m3 5.87 µg/m3 27.21 °C N/A 999.71 mbar 1.31 m/s 350.56 Deg 0.43 µg/m3
2022-08-12 18:00 4.45 µg/m3 106.63 µg/m3 7.06 µg/m3 28.51 °C N/A 999.57 mbar 1.31 m/s 326.96 Deg 0.54 µg/m3
2022-08-12 17:00 4.49 µg/m3 104.21 µg/m3 7.27 µg/m3 29.1 °C N/A 999.44 mbar 1.95 m/s 320.45 Deg 0.45 µg/m3
2022-08-12 16:00 5.3 µg/m3 103.22 µg/m3 8.15 µg/m3 29.37 °C N/A 999.50 mbar 1.59 m/s 333.33 Deg 0.62 µg/m3
2022-08-12 15:00 6.06 µg/m3 108.2 µg/m3 9.65 µg/m3 28.95 °C N/A 999.93 mbar 1.61 m/s 94.87 Deg 0.65 µg/m3
2022-08-12 14:00 6.71 µg/m3 107.73 µg/m3 8.85 µg/m3 29.08 °C N/A 999.93 mbar 1.76 m/s 22.33 Deg 0.79 µg/m3
2022-08-12 13:00 6.39 µg/m3 97.45 µg/m3 9.08 µg/m3 28.95 °C N/A 999.84 mbar 1.67 m/s 17.62 Deg 0.81 µg/m3
2022-08-12 12:00 7.52 µg/m3 90.55 µg/m3 7.95 µg/m3 28.19 °C N/A 1,000.09 mbar 1.26 m/s 104.35 Deg 0.92 µg/m3
2022-08-12 11:00 8.59 µg/m3 81.29 µg/m3 8.34 µg/m3 27.19 °C N/A 1,000.67 mbar 1.21 m/s 15.78 Deg 0.76 µg/m3
2022-08-12 10:00 13.47 µg/m3 73.59 µg/m3 7.21 µg/m3 27 °C N/A 1,000.74 mbar 0.74 m/s 334.35 Deg 0.78 µg/m3
2022-08-12 09:00 22.25 µg/m3 66.19 µg/m3 9.67 µg/m3 26.49 °C N/A 1,000.56 mbar 1.05 m/s 67.9 Deg 2.69 µg/m3
2022-08-12 08:00 24.36 µg/m3 61.82 µg/m3 15.74 µg/m3 23.66 °C N/A 1,000.57 mbar 1.07 m/s 193.12 Deg 2.25 µg/m3
2022-08-12 07:00 40.88 µg/m3 20.81 µg/m3 14.7 µg/m3 24.59 °C N/A 1,000.08 mbar 0.84 m/s 250.97 Deg 27.37 µg/m3
2022-08-12 06:00 35.83 µg/m3 2.65 µg/m3 11.44 µg/m3 23.65 °C N/A 999.65 mbar 0.3 m/s 290.13 Deg 24.64 µg/m3
2022-08-12 05:00 22.95 µg/m3 7.39 µg/m3 10.08 µg/m3 23.63 °C N/A 999.59 mbar 0.31 m/s 296.21 Deg 2.64 µg/m3
2022-08-12 04:00 12.13 µg/m3 22.78 µg/m3 9.31 µg/m3 23.77 °C N/A 999.86 mbar 0.33 m/s 294.54 Deg 0.03 µg/m3
2022-08-12 03:00 17.75 µg/m3 13.67 µg/m3 7.66 µg/m3 23.92 °C N/A 1,000.03 mbar 0.38 m/s 303.52 Deg 0.65 µg/m3
2022-08-12 02:00 12.94 µg/m3 14.83 µg/m3 5.77 µg/m3 24.08 °C N/A 1,000.32 mbar 0.34 m/s 291.57 Deg -0.18 µg/m3
2022-08-12 01:00 9.6 µg/m3 20.98 µg/m3 4.92 µg/m3 24.19 °C N/A 1,000.59 mbar 0.44 m/s 293.61 Deg -0.59 µg/m3
2022-08-12 00:00 6.98 µg/m3 30.92 µg/m3 10.84 µg/m3 24.13 °C N/A 1,000.91 mbar 0.43 m/s 282.13 Deg -0.32 µg/m3
2022-08-11 23:00 16.86 µg/m3 37.71 µg/m3 12.79 µg/m3 24.22 °C N/A 1,001.15 mbar 0.99 m/s 172.65 Deg -0.89 µg/m3
2022-08-11 22:00 28 µg/m3 9.71 µg/m3 10.16 µg/m3 24.62 °C N/A 1,000.99 mbar 0.45 m/s 205.19 Deg -0.25 µg/m3
2022-08-11 21:00 31.64 µg/m3 9.1 µg/m3 8.21 µg/m3 24.54 °C N/A 1,000.79 mbar 0.4 m/s 272.05 Deg 2.03 µg/m3
2022-08-11 20:00 24.21 µg/m3 26.86 µg/m3 5.24 µg/m3 24.55 °C N/A 1,000.47 mbar 0.52 m/s 306.9 Deg 0.39 µg/m3
2022-08-11 19:00 15.81 µg/m3 56.49 µg/m3 3.35 µg/m3 24.12 °C N/A 1,000.20 mbar 0.95 m/s 257.57 Deg 0.79 µg/m3
2022-08-11 18:00 11.56 µg/m3 63.68 µg/m3 6.7 µg/m3 24.52 °C N/A 1,000.10 mbar 1.3 m/s 289.35 Deg 0.75 µg/m3
2022-08-11 17:00 10.18 µg/m3 68.03 µg/m3 6.4 µg/m3 25.66 °C N/A 1,000.19 mbar 1.69 m/s 245.38 Deg 0.79 µg/m3
2022-08-11 16:00 13.09 µg/m3 65.41 µg/m3 6.98 µg/m3 27.76 °C N/A 1,000.06 mbar 2.03 m/s 135.82 Deg 1.18 µg/m3
2022-08-11 15:00 10.57 µg/m3 69.39 µg/m3 4.09 µg/m3 28.26 °C N/A 1,000.34 mbar 2.23 m/s 148.8 Deg 1.92 µg/m3
2022-08-11 14:00 8.77 µg/m3 73.27 µg/m3 6.32 µg/m3 25.71 °C N/A 1,001.10 mbar 1.67 m/s 176.77 Deg 1.89 µg/m3
2022-08-11 13:00 13.13 µg/m3 69.09 µg/m3 8.31 µg/m3 23.25 °C N/A 1,001.63 mbar 1.97 m/s 188.83 Deg 1.87 µg/m3
2022-08-11 12:00 12.31 µg/m3 76.23 µg/m3 7.27 µg/m3 24.87 °C N/A 1,001.76 mbar 2.42 m/s 161.32 Deg 0.92 µg/m3
2022-08-11 11:00 13.47 µg/m3 81.12 µg/m3 8.87 µg/m3 28.75 °C N/A 1,001.28 mbar 2.74 m/s 223.48 Deg 1.79 µg/m3
2022-08-11 10:00 18.94 µg/m3 70.77 µg/m3 8.02 µg/m3 28.5 °C N/A 1,001.46 mbar 2.06 m/s 176.32 Deg 3.77 µg/m3
2022-08-11 09:00 14.69 µg/m3 67.38 µg/m3 12.54 µg/m3 27.83 °C N/A 1,001.26 mbar 2.59 m/s 161.23 Deg 2.18 µg/m3
2022-08-11 08:00 42.2 µg/m3 39.7 µg/m3 15.3 µg/m3 27.5 °C N/A 1,000.99 mbar 1.24 m/s 211.23 Deg 15.87 µg/m3
2022-08-11 07:00 54.92 µg/m3 15.95 µg/m3 12.92 µg/m3 25.54 °C N/A 1,000.73 mbar 0.36 m/s 198.05 Deg 21.1 µg/m3
2022-08-11 06:00 54.16 µg/m3 3.83 µg/m3 7.87 µg/m3 25.13 °C N/A 1,000.54 mbar 0.35 m/s 276.15 Deg 22.31 µg/m3
2022-08-11 05:00 23.6 µg/m3 42.35 µg/m3 6.55 µg/m3 25.44 °C N/A 1,000.27 mbar 0.56 m/s 90.22 Deg 0.02 µg/m3
2022-08-11 04:00 13.12 µg/m3 47.83 µg/m3 6.13 µg/m3 25.52 °C N/A 1,000.21 mbar 0.64 m/s 300.32 Deg 0.13 µg/m3
2022-08-11 03:00 14.24 µg/m3 50.56 µg/m3 6.74 µg/m3 25.73 °C N/A 1,000.49 mbar 0.46 m/s 202.25 Deg 1.29 µg/m3
2022-08-11 02:00 7.92 µg/m3 54.68 µg/m3 7.32 µg/m3 26.02 °C N/A 1,000.76 mbar 0.62 m/s 271.17 Deg 0.45 µg/m3
2022-08-11 01:00 10.49 µg/m3 54.63 µg/m3 9.02 µg/m3 26.19 °C N/A 1,001.09 mbar 0.6 m/s 275.51 Deg 0.25 µg/m3
2022-08-11 00:00 16.44 µg/m3 49.21 µg/m3 10.76 µg/m3 26.41 °C N/A 1,001.39 mbar 0.51 m/s 248.67 Deg 0.23 µg/m3
2022-08-10 23:00 29.07 µg/m3 39.62 µg/m3 11.48 µg/m3 26.78 °C N/A 1,001.48 mbar 0.71 m/s 250.72 Deg 0.62 µg/m3
2022-08-10 22:00 22.53 µg/m3 47.47 µg/m3 9.04 µg/m3 27.23 °C N/A 1,001.38 mbar 0.51 m/s 274.36 Deg 0.34 µg/m3
2022-08-10 21:00 10.3 µg/m3 70.09 µg/m3 7.3 µg/m3 27.67 °C N/A 1,001.22 mbar 0.49 m/s 289.17 Deg 0.35 µg/m3
2022-08-10 20:00 6.39 µg/m3 77.4 µg/m3 5.73 µg/m3 28.07 °C N/A 1,001.04 mbar 0.56 m/s 332.42 Deg 0.25 µg/m3
2022-08-10 19:00 5.23 µg/m3 83.53 µg/m3 5.87 µg/m3 29.08 °C N/A 1,000.88 mbar 1.2 m/s 303.16 Deg 0.51 µg/m3
2022-08-10 18:00 5.21 µg/m3 82.14 µg/m3 8.61 µg/m3 30.27 °C N/A 1,000.58 mbar 1.08 m/s 275.66 Deg 0.76 µg/m3
2022-08-10 17:00 5.2 µg/m3 78.51 µg/m3 11.12 µg/m3 30.29 °C N/A 1,000.66 mbar 1.64 m/s 247.51 Deg 1.06 µg/m3
2022-08-10 16:00 7.99 µg/m3 76.78 µg/m3 11.1 µg/m3 30.33 °C N/A 1,000.66 mbar 2.54 m/s 228.18 Deg 2.08 µg/m3
2022-08-10 15:00 6.78 µg/m3 80.54 µg/m3 7.59 µg/m3 30.58 °C N/A 1,000.78 mbar 2.25 m/s 218.67 Deg 1.59 µg/m3
2022-08-10 14:00 10.64 µg/m3 84.72 µg/m3 9.8 µg/m3 28.22 °C N/A 1,001.65 mbar 2.04 m/s 188.53 Deg 1.84 µg/m3
2022-08-10 13:00 11.26 µg/m3 82.36 µg/m3 10.78 µg/m3 29.5 °C N/A 1,001.73 mbar 1.76 m/s 249.05 Deg 1.79 µg/m3
2022-08-10 12:00 11.24 µg/m3 85.24 µg/m3 12.39 µg/m3 29.15 °C N/A 1,001.96 mbar 1.78 m/s 147.04 Deg 1.56 µg/m3
2022-08-10 11:00 10.44 µg/m3 84.6 µg/m3 13.32 µg/m3 30.28 °C N/A 1,001.90 mbar 2.28 m/s 210.78 Deg 2.17 µg/m3
2022-08-10 10:00 16.99 µg/m3 81.15 µg/m3 12.18 µg/m3 29.69 °C N/A 1,001.83 mbar 2.05 m/s 194.28 Deg 2.78 µg/m3
2022-08-10 09:00 13.64 µg/m3 83.67 µg/m3 11.31 µg/m3 29.57 °C N/A 1,001.73 mbar 1.3 m/s 198.77 Deg 2.12 µg/m3
2022-08-10 08:00 7.64 µg/m3 81.71 µg/m3 12.5 µg/m3 28.53 °C N/A 1,001.66 mbar 0.89 m/s 203.75 Deg 1.65 µg/m3
2022-08-10 07:00 28.7 µg/m3 50.16 µg/m3 14.98 µg/m3 26.55 °C N/A 1,001.60 mbar 0.63 m/s 260.57 Deg 3.3 µg/m3
2022-08-10 06:00 42.47 µg/m3 24.04 µg/m3 15.4 µg/m3 25.68 °C N/A 1,001.39 mbar 0.68 m/s 261.78 Deg 5.15 µg/m3
2022-08-10 05:00 23.85 µg/m3 40.1 µg/m3 16.02 µg/m3 25.68 °C N/A 1,001.03 mbar 0.47 m/s 277.45 Deg 0.29 µg/m3
2022-08-10 04:00 15.08 µg/m3 42.18 µg/m3 16 µg/m3 25.85 °C N/A 1,001.03 mbar 0.47 m/s 263.39 Deg 0.33 µg/m3
2022-08-10 03:00 17.82 µg/m3 43.09 µg/m3 11.97 µg/m3 25.92 °C N/A 1,001.18 mbar 0.51 m/s 275.22 Deg 1.09 µg/m3
2022-08-10 02:00 10.26 µg/m3 48.41 µg/m3 11.16 µg/m3 26.14 °C N/A 1,001.33 mbar 0.54 m/s 266.76 Deg 0.21 µg/m3
2022-08-10 01:00 17.6 µg/m3 46 µg/m3 9.67 µg/m3 26.52 °C N/A 1,001.59 mbar 0.52 m/s 275.8 Deg 0.08 µg/m3
2022-08-10 00:00 7.9 µg/m3 64.41 µg/m3 10.08 µg/m3 27.16 °C N/A 1,001.98 mbar 0.5 m/s 243.25 Deg 0.21 µg/m3
2022-08-09 23:00 6.54 µg/m3 73.95 µg/m3 11.16 µg/m3 27.2 °C N/A 1,002.01 mbar 0.58 m/s 178.16 Deg 0.24 µg/m3
2022-08-09 22:00 7.53 µg/m3 73.95 µg/m3 9.19 µg/m3 27.52 °C N/A 1,001.90 mbar 0.45 m/s 315.15 Deg 0.33 µg/m3
2022-08-09 21:00 5.46 µg/m3 76.95 µg/m3 7.3 µg/m3 27.86 °C N/A 1,001.82 mbar 0.86 m/s 305.74 Deg 0.3 µg/m3
2022-08-09 20:00 4.34 µg/m3 80.4 µg/m3 6.15 µg/m3 28.25 °C N/A 1,001.44 mbar 0.86 m/s 315.27 Deg 0.4 µg/m3
2022-08-09 19:00 3.39 µg/m3 83.65 µg/m3 7.49 µg/m3 29.03 °C N/A 1,001.15 mbar 1.19 m/s 332.47 Deg 0.34 µg/m3
2022-08-09 18:00 3.84 µg/m3 82.12 µg/m3 6.3 µg/m3 30.36 °C N/A 1,001.04 mbar 1.22 m/s 316.3 Deg 0.53 µg/m3
2022-08-09 17:00 4.87 µg/m3 84.61 µg/m3 4.77 µg/m3 31.39 °C N/A 1,000.64 mbar 1.58 m/s 282.46 Deg 0.78 µg/m3
2022-08-09 16:00 4.76 µg/m3 81.92 µg/m3 5.98 µg/m3 31.48 °C N/A 1,000.65 mbar 1.93 m/s 272.05 Deg 0.89 µg/m3
2022-08-09 15:00 7.37 µg/m3 79.77 µg/m3 10.76 µg/m3 31.94 °C N/A 1,000.90 mbar 1.95 m/s 285.38 Deg 2.24 µg/m3
2022-08-09 14:00 7.75 µg/m3 112.59 µg/m3 13.64 µg/m3 31.71 °C N/A 1,001.21 mbar 1.48 m/s 291.14 Deg 0.9 µg/m3
2022-08-09 13:00 10.15 µg/m3 127.45 µg/m3 14.96 µg/m3 30.55 °C N/A 1,001.80 mbar 1.19 m/s 165.54 Deg 0.97 µg/m3
2022-08-09 12:00 11.35 µg/m3 122.49 µg/m3 16.32 µg/m3 30.26 °C N/A 1,002.08 mbar 1.37 m/s 230.09 Deg 0.86 µg/m3
2022-08-09 11:00 16.99 µg/m3 108.78 µg/m3 20.37 µg/m3 30.01 °C N/A 1,002.13 mbar 1.44 m/s 96.06 Deg 0.82 µg/m3
2022-08-09 10:00 34.84 µg/m3 88.05 µg/m3 20.77 µg/m3 31.1 °C N/A 1,001.82 mbar 1.42 m/s 230.9 Deg 4.85 µg/m3
2022-08-09 09:00 29.87 µg/m3 89.33 µg/m3 20.94 µg/m3 30.84 °C N/A 1,001.66 mbar 1.07 m/s 244.72 Deg 3.59 µg/m3
2022-08-09 08:00 33.36 µg/m3 79.72 µg/m3 26.44 µg/m3 29.17 °C N/A 1,001.60 mbar 0.77 m/s 213.04 Deg 3.3 µg/m3
2022-08-09 07:00 59.42 µg/m3 36.58 µg/m3 20.52 µg/m3 27.43 °C N/A 1,001.41 mbar 0.48 m/s 214.02 Deg 12.06 µg/m3
2022-08-09 06:00 43.25 µg/m3 29.49 µg/m3 16.74 µg/m3 25.67 °C N/A 1,001.03 mbar 0.42 m/s 301.94 Deg 5.05 µg/m3
2022-08-09 05:00 21.78 µg/m3 40.68 µg/m3 14.68 µg/m3 25.54 °C N/A 1,000.78 mbar 0.38 m/s 273.16 Deg 0.09 µg/m3
2022-08-09 04:00 16.77 µg/m3 51.15 µg/m3 13.18 µg/m3 25.91 °C N/A 1,000.72 mbar 0.43 m/s 278.99 Deg 0.38 µg/m3
2022-08-09 03:00 20.75 µg/m3 73.86 µg/m3 12.86 µg/m3 26.42 °C N/A 1,000.65 mbar 0.42 m/s 284.05 Deg 1.99 µg/m3
2022-08-09 02:00 9.18 µg/m3 75.74 µg/m3 11.97 µg/m3 26.58 °C N/A 1,000.74 mbar 0.49 m/s 278.18 Deg 0.84 µg/m3
2022-08-09 01:00 3.14 µg/m3 103.46 µg/m3 11.73 µg/m3 27.4 °C N/A 1,000.95 mbar 0.52 m/s 154.59 Deg 0.31 µg/m3
2022-08-09 00:00 3.2 µg/m3 107.23 µg/m3 12.64 µg/m3 27.8 °C N/A 1,001.44 mbar 0.82 m/s 35.76 Deg 0.25 µg/m3
2022-08-08 23:00 6.08 µg/m3 102.37 µg/m3 11.92 µg/m3 28.13 °C N/A 1,001.55 mbar 0.88 m/s 257.38 Deg 0.07 µg/m3
2022-08-08 22:00 9.48 µg/m3 97.79 µg/m3 12.79 µg/m3 28.35 °C N/A 1,001.36 mbar 0.53 m/s 229.94 Deg 0.38 µg/m3
2022-08-08 21:00 7.24 µg/m3 107.03 µg/m3 13.71 µg/m3 28.84 °C N/A 1,001.34 mbar 1.2 m/s 27.24 Deg 0.27 µg/m3
2022-08-08 20:00 7.43 µg/m3 106.05 µg/m3 11.9 µg/m3 29.27 °C N/A 1,000.56 mbar 0.82 m/s 251.14 Deg 0.41 µg/m3
2022-08-08 19:00 8.45 µg/m3 111.47 µg/m3 13.35 µg/m3 29.6 °C N/A 1,000.00 mbar 1.3 m/s 265.71 Deg 0.41 µg/m3
2022-08-08 18:00 10.16 µg/m3 111.64 µg/m3 12.14 µg/m3 30.24 °C N/A 999.53 mbar 1.41 m/s 252.13 Deg 0.74 µg/m3
2022-08-08 17:00 9.13 µg/m3 108.3 µg/m3 12.64 µg/m3 31.21 °C N/A 999.45 mbar 2.04 m/s 243.75 Deg 0.95 µg/m3
2022-08-08 16:00 10.54 µg/m3 113.39 µg/m3 13.09 µg/m3 31.99 °C N/A 999.21 mbar 1.64 m/s 181.4 Deg 1.52 µg/m3
2022-08-08 15:00 7.55 µg/m3 110.18 µg/m3 15.02 µg/m3 31.58 °C N/A 999.37 mbar 1.77 m/s 267.25 Deg 1.06 µg/m3
2022-08-08 14:00 10.16 µg/m3 107.73 µg/m3 15.02 µg/m3 31.2 °C N/A 999.86 mbar 2.19 m/s 271.55 Deg 6.14 µg/m3
2022-08-08 13:00 10.21 µg/m3 114.86 µg/m3 11.82 µg/m3 31.48 °C N/A 999.82 mbar 2.22 m/s 233.85 Deg 2.58 µg/m3
2022-08-08 12:00 7.84 µg/m3 100.32 µg/m3 11.01 µg/m3 31.38 °C N/A 1,000.04 mbar 2.37 m/s 213.05 Deg 1.17 µg/m3
2022-08-08 11:00 10.4 µg/m3 96.29 µg/m3 12.28 µg/m3 31.1 °C N/A 1,000.10 mbar 2.69 m/s 251.17 Deg 1.87 µg/m3
2022-08-08 10:00 13.29 µg/m3 83.38 µg/m3 15.36 µg/m3 31 °C N/A 1,000.03 mbar 2.12 m/s 289.05 Deg 1.72 µg/m3
2022-08-08 09:00 25.47 µg/m3 66.33 µg/m3 19.82 µg/m3 30.64 °C N/A 999.73 mbar 1.68 m/s 196.28 Deg 4.71 µg/m3
2022-08-08 08:00 44.67 µg/m3 19.75 µg/m3 23.05 µg/m3 28.71 °C N/A 999.51 mbar 0.85 m/s 182.09 Deg 27.4 µg/m3
2022-08-08 07:00 51.84 µg/m3 6.13 µg/m3 16.97 µg/m3 26.61 °C N/A 999.12 mbar 0.59 m/s 197.39 Deg 46.83 µg/m3
2022-08-08 06:00 46.42 µg/m3 2.89 µg/m3 11.48 µg/m3 24.99 °C N/A 998.82 mbar 0.51 m/s 261.29 Deg 26.18 µg/m3
2022-08-08 05:00 33.62 µg/m3 11.49 µg/m3 9.44 µg/m3 24.62 °C N/A 998.42 mbar 0.39 m/s 140.71 Deg 0.86 µg/m3
2022-08-08 04:00 22.83 µg/m3 21.58 µg/m3 7.98 µg/m3 25.35 °C N/A 998.12 mbar 0.45 m/s 277.85 Deg 1.11 µg/m3
2022-08-08 03:00 12.79 µg/m3 33.58 µg/m3 7.78 µg/m3 25.71 °C N/A 998.18 mbar 0.38 m/s 81.64 Deg 0.58 µg/m3
2022-08-08 02:00 5.81 µg/m3 40.44 µg/m3 7.02 µg/m3 25.77 °C N/A 998.28 mbar 0.45 m/s 247.16 Deg 0.2 µg/m3
2022-08-08 01:00 3.49 µg/m3 56.02 µg/m3 6.94 µg/m3 26.49 °C N/A 998.50 mbar 0.4 m/s 327.55 Deg 0.23 µg/m3
2022-08-08 00:00 2.16 µg/m3 60.33 µg/m3 7.38 µg/m3 26.64 °C N/A 998.80 mbar 0.64 m/s 327.75 Deg 0.09 µg/m3
2022-08-07 23:00 5.32 µg/m3 62.71 µg/m3 9.93 µg/m3 26.96 °C N/A 998.88 mbar 0.65 m/s 334.23 Deg 0.18 µg/m3
2022-08-07 22:00 4.27 µg/m3 68.5 µg/m3 8.7 µg/m3 27.2 °C N/A 998.87 mbar 0.75 m/s 310.14 Deg 0.22 µg/m3
2022-08-07 21:00 5.78 µg/m3 72.74 µg/m3 7.89 µg/m3 27.95 °C N/A 998.71 mbar 0.6 m/s 327.14 Deg 0.2 µg/m3
2022-08-07 20:00 6.64 µg/m3 85.14 µg/m3 7.59 µg/m3 28.23 °C N/A 998.21 mbar 1.22 m/s 182.12 Deg 0.21 µg/m3
2022-08-07 19:00 6.29 µg/m3 94.4 µg/m3 7.06 µg/m3 29.02 °C N/A 997.71 mbar 1.94 m/s 91.93 Deg 0.34 µg/m3
2022-08-07 18:00 2.91 µg/m3 100.94 µg/m3 6.34 µg/m3 30.95 °C N/A 997.23 mbar 1.41 m/s 326.66 Deg 0.36 µg/m3
2022-08-07 17:00 2.55 µg/m3 114.98 µg/m3 6.85 µg/m3 32.02 °C N/A 997.39 mbar 1.24 m/s 327.53 Deg 0.3 µg/m3
2022-08-07 16:00 3.34 µg/m3 114.52 µg/m3 6.51 µg/m3 32.12 °C N/A 997.42 mbar 1.82 m/s 100.47 Deg 0.15 µg/m3
2022-08-07 15:00 2.76 µg/m3 115.82 µg/m3 6.57 µg/m3 32.64 °C N/A 997.59 mbar 1.34 m/s 189.79 Deg 0.37 µg/m3
2022-08-07 14:00 3.24 µg/m3 111.69 µg/m3 6.21 µg/m3 32.52 °C N/A 997.93 mbar 1.87 m/s 177.3 Deg 0.22 µg/m3
2022-08-07 13:00 3.2 µg/m3 105.84 µg/m3 7.15 µg/m3 32.67 °C N/A 998.36 mbar 1.55 m/s 102.68 Deg 0.37 µg/m3
2022-08-07 12:00 3.58 µg/m3 100.94 µg/m3 6.87 µg/m3 32.17 °C N/A 998.81 mbar 1.52 m/s 92.21 Deg 0.53 µg/m3
2022-08-07 11:00 4.52 µg/m3 97.8 µg/m3 6.66 µg/m3 31.56 °C N/A 999.11 mbar 1.69 m/s 190.58 Deg 0.79 µg/m3
2022-08-07 10:00 6.22 µg/m3 88.93 µg/m3 6.21 µg/m3 30.92 °C N/A 999.21 mbar 1.32 m/s 330.38 Deg 1.07 µg/m3
2022-08-07 09:00 5.4 µg/m3 81.33 µg/m3 6.38 µg/m3 29.38 °C N/A 998.99 mbar 1.27 m/s 88.23 Deg 0.9 µg/m3
2022-08-07 08:00 4.9 µg/m3 79.06 µg/m3 7.13 µg/m3 28.18 °C N/A 998.76 mbar 1.67 m/s 26.38 Deg 0.57 µg/m3
2022-08-07 07:00 7.73 µg/m3 65.08 µg/m3 7.15 µg/m3 27.08 °C N/A 998.45 mbar 1.04 m/s 97.44 Deg 0.45 µg/m3
2022-08-07 06:00 8.93 µg/m3 56.87 µg/m3 7.66 µg/m3 25.82 °C N/A 998.15 mbar 0.63 m/s 328.94 Deg 0.15 µg/m3
2022-08-07 05:00 13.47 µg/m3 52.13 µg/m3 6.32 µg/m3 25.26 °C N/A 997.99 mbar 0.67 m/s 287.06 Deg 0.22 µg/m3
2022-08-07 04:00 7.24 µg/m3 66.62 µg/m3 4.79 µg/m3 25.97 °C N/A 997.93 mbar 0.52 m/s 312.47 Deg 0.23 µg/m3
2022-08-07 03:00 6.89 µg/m3 77.41 µg/m3 5.09 µg/m3 26.58 °C N/A 998.02 mbar 0.84 m/s 335.32 Deg 0.71 µg/m3
2022-08-07 02:00 2.04 µg/m3 79.73 µg/m3 5.81 µg/m3 26.93 °C N/A 998.41 mbar 0.86 m/s 327.51 Deg 0.29 µg/m3
2022-08-07 01:00 2.47 µg/m3 69.65 µg/m3 6.43 µg/m3 26.91 °C N/A 998.94 mbar 1.25 m/s 299.46 Deg 0.29 µg/m3
2022-08-07 00:00 3.26 µg/m3 67.64 µg/m3 6.19 µg/m3 26.95 °C N/A 999.56 mbar 1.16 m/s 317.34 Deg 0.27 µg/m3
2022-08-06 23:00 2.24 µg/m3 67.88 µg/m3 6.32 µg/m3 27.24 °C N/A 999.84 mbar 1.26 m/s 313.44 Deg 0.23 µg/m3
2022-08-06 22:00 2.27 µg/m3 68.41 µg/m3 5.32 µg/m3 27.4 °C N/A 999.97 mbar 0.93 m/s 312.85 Deg 0.23 µg/m3
2022-08-06 21:00 4.01 µg/m3 67.87 µg/m3 5.92 µg/m3 27.72 °C N/A 999.92 mbar 0.85 m/s 330.17 Deg 0.15 µg/m3
2022-08-06 20:00 2.14 µg/m3 69.94 µg/m3 6.11 µg/m3 28.21 °C N/A 999.63 mbar 1.2 m/s 324.42 Deg 0.31 µg/m3
2022-08-06 19:00 1.16 µg/m3 71.42 µg/m3 6.64 µg/m3 29.07 °C N/A 999.36 mbar 1.36 m/s 321.92 Deg 0.24 µg/m3
2022-08-06 18:00 1.04 µg/m3 77.19 µg/m3 5.62 µg/m3 30.55 °C N/A 999.01 mbar 1.37 m/s 320.72 Deg 0.25 µg/m3
2022-08-06 17:00 1.14 µg/m3 84.5 µg/m3 4.9 µg/m3 31.63 °C N/A 999.10 mbar 1.77 m/s 316.76 Deg 0.35 µg/m3
2022-08-06 16:00 2.06 µg/m3 86.88 µg/m3 7.34 µg/m3 32.12 °C N/A 999.36 mbar 1.52 m/s 323.28 Deg 0.4 µg/m3
2022-08-06 15:00 4.26 µg/m3 92.57 µg/m3 7.49 µg/m3 32.52 °C N/A 999.75 mbar 1.85 m/s 331.73 Deg 0.33 µg/m3
2022-08-06 14:00 2.88 µg/m3 99.09 µg/m3 8.08 µg/m3 33.02 °C N/A 1,000.11 mbar 1.56 m/s 337.53 Deg 0.4 µg/m3
2022-08-06 13:00 2.01 µg/m3 96.97 µg/m3 8.04 µg/m3 32.94 °C N/A 1,000.36 mbar 1.69 m/s 343.38 Deg 0.35 µg/m3
2022-08-06 12:00 3.71 µg/m3 97.59 µg/m3 8.19 µg/m3 32.02 °C N/A 1,000.56 mbar 1.67 m/s 336.32 Deg 0.52 µg/m3
2022-08-06 11:00 3.72 µg/m3 94.52 µg/m3 8.46 µg/m3 31.24 °C N/A 1,000.75 mbar 1.73 m/s 331.87 Deg 0.45 µg/m3
2022-08-06 10:00 3.23 µg/m3 89.25 µg/m3 10.12 µg/m3 30.79 °C N/A 1,000.70 mbar 1.8 m/s 336.78 Deg 0.46 µg/m3
2022-08-06 09:00 3.53 µg/m3 86.27 µg/m3 11.86 µg/m3 29.66 °C N/A 1,000.60 mbar 2.04 m/s 334.13 Deg 0.54 µg/m3
2022-08-06 08:00 6.1 µg/m3 81.35 µg/m3 13.15 µg/m3 28.45 °C N/A 1,000.60 mbar 2.15 m/s 261.3 Deg 0.83 µg/m3
2022-08-06 07:00 6.72 µg/m3 76.02 µg/m3 9.19 µg/m3 27.19 °C N/A 1,000.73 mbar 1.51 m/s 345.17 Deg 0.32 µg/m3
2022-08-06 06:00 8.98 µg/m3 69.43 µg/m3 7.51 µg/m3 26.22 °C N/A 1,000.75 mbar 0.71 m/s 333.04 Deg 0.19 µg/m3
2022-08-06 05:00 4.04 µg/m3 76.82 µg/m3 7.17 µg/m3 26.23 °C N/A 1,000.39 mbar 0.92 m/s 318.32 Deg 0.19 µg/m3
2022-08-06 04:00 3.31 µg/m3 78.23 µg/m3 7.21 µg/m3 26.24 °C N/A 1,000.49 mbar 0.96 m/s 298.2 Deg 0.05 µg/m3
2022-08-06 03:00 5.09 µg/m3 74.17 µg/m3 7.19 µg/m3 26.17 °C N/A 1,000.67 mbar 0.72 m/s 319.16 Deg 0.52 µg/m3
2022-08-06 02:00 3.41 µg/m3 74.93 µg/m3 7.93 µg/m3 26.29 °C N/A 1,000.74 mbar 0.46 m/s 320.87 Deg 0.26 µg/m3
2022-08-06 01:00 4.91 µg/m3 72.35 µg/m3 8.51 µg/m3 26.67 °C N/A 1,000.96 mbar 0.57 m/s 323.09 Deg 0.11 µg/m3
2022-08-06 00:00 5.76 µg/m3 76.99 µg/m3 8.17 µg/m3 26.83 °C N/A 1,001.39 mbar 0.51 m/s 314.18 Deg 0.14 µg/m3
2022-08-05 23:00 3.75 µg/m3 80.59 µg/m3 7 µg/m3 27.07 °C N/A 1,001.35 mbar 0.71 m/s 326.59 Deg 0.13 µg/m3
2022-08-05 22:00 4.77 µg/m3 82.54 µg/m3 7.17 µg/m3 27.57 °C N/A 1,001.44 mbar 0.71 m/s 314.71 Deg 0.06 µg/m3
2022-08-05 21:00 10.69 µg/m3 81.55 µg/m3 6.57 µg/m3 27.88 °C N/A 1,001.44 mbar 0.66 m/s 321.74 Deg 0.1 µg/m3
2022-08-05 20:00 5.63 µg/m3 85.89 µg/m3 6.77 µg/m3 28.47 °C N/A 1,000.98 mbar 0.84 m/s 316.07 Deg 0.28 µg/m3
2022-08-05 19:00 3.06 µg/m3 99.36 µg/m3 8.63 µg/m3 29.41 °C N/A 1,000.62 mbar 1.34 m/s 325.52 Deg 0.26 µg/m3
2022-08-05 18:00 2.42 µg/m3 110.34 µg/m3 9.46 µg/m3 31.26 °C N/A 1,000.54 mbar 1.48 m/s 323.05 Deg 0.33 µg/m3
2022-08-05 17:00 2.59 µg/m3 109.92 µg/m3 9.1 µg/m3 31.97 °C N/A 1,000.81 mbar 1.7 m/s 319.32 Deg 0.4 µg/m3
2022-08-05 16:00 3.64 µg/m3 109.57 µg/m3 10.42 µg/m3 32.4 °C N/A 1,001.08 mbar 1.56 m/s 325.72 Deg 0.52 µg/m3
2022-08-05 15:00 7.3 µg/m3 103.24 µg/m3 9.76 µg/m3 32.69 °C N/A 1,001.35 mbar 1.59 m/s 332.52 Deg 0.89 µg/m3
2022-08-05 14:00 9.48 µg/m3 102.56 µg/m3 9.31 µg/m3 32.14 °C N/A 1,001.72 mbar 2.56 m/s 99.77 Deg 1.04 µg/m3
2022-08-05 13:00 6.26 µg/m3 100.22 µg/m3 8.02 µg/m3 31.78 °C N/A 1,002.00 mbar 3.01 m/s 22.45 Deg 0.79 µg/m3
2022-08-05 12:00 7.37 µg/m3 95.07 µg/m3 7.21 µg/m3 31.08 °C N/A 1,002.26 mbar 2.76 m/s 105.08 Deg 1.13 µg/m3
2022-08-05 11:00 6.89 µg/m3 89.22 µg/m3 8.68 µg/m3 30.9 °C N/A 1,002.42 mbar 2.13 m/s 185.17 Deg 1.03 µg/m3
2022-08-05 10:00 8.38 µg/m3 81.66 µg/m3 10.03 µg/m3 30.66 °C N/A 1,002.37 mbar 2.26 m/s 21.82 Deg 1.33 µg/m3
2022-08-05 09:00 9.54 µg/m3 80.18 µg/m3 10.18 µg/m3 30.6 °C N/A 1,002.28 mbar 1.89 m/s 106.52 Deg 1.15 µg/m3
2022-08-05 08:00 9.74 µg/m3 73.17 µg/m3 10.08 µg/m3 29.01 °C N/A 1,002.08 mbar 1.3 m/s 178.74 Deg 1.11 µg/m3
2022-08-05 07:00 19.08 µg/m3 61.42 µg/m3 11.33 µg/m3 27.27 °C N/A 1,001.99 mbar 0.63 m/s 332.62 Deg 1.74 µg/m3
2022-08-05 06:00 15.68 µg/m3 64.39 µg/m3 13.6 µg/m3 25.42 °C N/A 1,001.93 mbar 0.48 m/s 312.93 Deg 0.19 µg/m3
2022-08-05 05:00 17.56 µg/m3 47.07 µg/m3 13.32 µg/m3 25.52 °C N/A 1,001.82 mbar 0.29 m/s 277.94 Deg 0.37 µg/m3
2022-08-05 04:00 4.38 µg/m3 95.78 µg/m3 13.15 µg/m3 25.99 °C N/A 1,001.83 mbar 0.54 m/s 310.64 Deg 0.07 µg/m3
2022-08-05 03:00 12.54 µg/m3 95.91 µg/m3 11.1 µg/m3 26.03 °C N/A 1,002.02 mbar 0.76 m/s 346.11 Deg 0.7 µg/m3
2022-08-05 02:00 4.78 µg/m3 91.82 µg/m3 9.63 µg/m3 26.05 °C N/A 1,002.33 mbar 0.62 m/s 325.63 Deg 0.35 µg/m3
2022-08-05 01:00 10.43 µg/m3 83.17 µg/m3 13.32 µg/m3 26.67 °C N/A 1,002.59 mbar 0.59 m/s 335.03 Deg 0.15 µg/m3
2022-08-05 00:00 17.74 µg/m3 70.52 µg/m3 14.32 µg/m3 26.96 °C N/A 1,002.69 mbar 0.62 m/s 259.36 Deg -0.09 µg/m3
2022-08-04 23:00 23.46 µg/m3 63.68 µg/m3 26.19 µg/m3 27.33 °C N/A 1,002.68 mbar 0.56 m/s 273.4 Deg 0.16 µg/m3
2022-08-04 22:00 11.57 µg/m3 88.88 µg/m3 13.49 µg/m3 27.79 °C N/A 1,002.69 mbar 0.63 m/s 214.48 Deg 0.26 µg/m3
2022-08-04 21:00 4.2 µg/m3 103.95 µg/m3 8.57 µg/m3 28.23 °C N/A 1,002.56 mbar 1.22 m/s 39.73 Deg 0.22 µg/m3
2022-08-04 20:00 8.18 µg/m3 110.77 µg/m3 10.06 µg/m3 28.64 °C N/A 1,001.99 mbar 1.39 m/s 175.25 Deg 0.32 µg/m3
2022-08-04 19:00 8.09 µg/m3 117.62 µg/m3 10.16 µg/m3 29.21 °C N/A 1,001.84 mbar 1.33 m/s 251.23 Deg 0.38 µg/m3
2022-08-04 18:00 7.41 µg/m3 123.81 µg/m3 10.88 µg/m3 30.04 °C N/A 1,001.72 mbar 1.87 m/s 18.58 Deg 0.39 µg/m3
2022-08-04 17:00 6.7 µg/m3 125.3 µg/m3 11.03 µg/m3 31.1 °C N/A 1,001.54 mbar 1.37 m/s 173.34 Deg 0.54 µg/m3
2022-08-04 16:00 7.59 µg/m3 128.43 µg/m3 12.52 µg/m3 30.81 °C N/A 1,001.50 mbar 1.21 m/s 210.09 Deg 0.62 µg/m3
2022-08-04 15:00 9.91 µg/m3 125.54 µg/m3 15.89 µg/m3 31.88 °C N/A 1,001.63 mbar 1.66 m/s 226.27 Deg 1.17 µg/m3
2022-08-04 14:00 7.44 µg/m3 120.41 µg/m3 12.52 µg/m3 32.6 °C N/A 1,001.93 mbar 1.6 m/s 227.92 Deg 0.98 µg/m3
2022-08-04 13:00 8.45 µg/m3 122.57 µg/m3 10.69 µg/m3 31.62 °C N/A 1,002.36 mbar 1.97 m/s 200.22 Deg 1.02 µg/m3
2022-08-04 12:00 9.91 µg/m3 121.18 µg/m3 10.88 µg/m3 31.14 °C N/A 1,002.62 mbar 2.05 m/s 230.78 Deg 1.37 µg/m3
2022-08-04 11:00 9.24 µg/m3 118.14 µg/m3 2.58 µg/m3 30.82 °C N/A 1,002.69 mbar 1.96 m/s 241.82 Deg 1.18 µg/m3
2022-08-04 10:00 11.69 µg/m3 105.31 µg/m3 -0.22 µg/m3 30.42 °C N/A 1,002.53 mbar 1.98 m/s 256.22 Deg 1.67 µg/m3
2022-08-04 09:00 22.37 µg/m3 0 µg/m3 -0.22 µg/m3 29.52 °C N/A 1,002.27 mbar 1.54 m/s 161.12 Deg 4.12 µg/m3
2022-08-04 08:00 287 µg/m3 78.08 µg/m3 4.96 µg/m3 28.37 °C N/A 1,001.95 mbar 1.42 m/s 104.93 Deg 3.19 µg/m3
2022-08-04 07:00 33.8 µg/m3 55.81 µg/m3 8.8 µg/m3 27.3 °C N/A 1,001.65 mbar 0.55 m/s 112.65 Deg 2.34 µg/m3
2022-08-04 06:00 28.42 µg/m3 58.75 µg/m3 8.55 µg/m3 25.5 °C N/A 1,001.52 mbar 0.55 m/s 94.39 Deg 0.26 µg/m3
2022-08-04 05:00 25.49 µg/m3 55.81 µg/m3 9.06 µg/m3 25.16 °C N/A 1,001.29 mbar 0.43 m/s 302.86 Deg -0.21 µg/m3
2022-08-04 04:00 25.94 µg/m3 44.41 µg/m3 8.44 µg/m3 24.99 °C N/A 1,001.34 mbar 0.29 m/s 290.98 Deg 0.12 µg/m3
2022-08-04 03:00 24.24 µg/m3 52.61 µg/m3 9.59 µg/m3 25.23 °C N/A 1,001.43 mbar 0.38 m/s 302.87 Deg 1.78 µg/m3
2022-08-04 02:00 22.37 µg/m3 49.43 µg/m3 10.25 µg/m3 25.72 °C N/A 1,001.70 mbar 0.41 m/s 299.84 Deg 0.38 µg/m3
2022-08-04 01:00 28.15 µg/m3 43.7 µg/m3 10.12 µg/m3 25.98 °C N/A 1,001.81 mbar 0.47 m/s 279.32 Deg 0.03 µg/m3
2022-08-04 00:00 22.32 µg/m3 67.94 µg/m3 7.7 µg/m3 26.69 °C N/A 1,001.91 mbar 0.34 m/s 230.53 Deg 0.42 µg/m3
2022-08-03 23:00 6.9 µg/m3 96.38 µg/m3 7.11 µg/m3 27.29 °C N/A 1,001.70 mbar 0.88 m/s 247.9 Deg 0.24 µg/m3
2022-08-03 22:00 10.11 µg/m3 89.38 µg/m3 7.81 µg/m3 27.53 °C N/A 1,001.59 mbar 0.97 m/s 271.38 Deg 0.38 µg/m3
2022-08-03 21:00 5.93 µg/m3 103.75 µg/m3 7.19 µg/m3 27.74 °C N/A 1,001.48 mbar 1.18 m/s 143.55 Deg 0.23 µg/m3
2022-08-03 20:00 8.6 µg/m3 102.21 µg/m3 8 µg/m3 28.06 °C N/A 1,001.05 mbar 1.42 m/s 319.92 Deg 0.41 µg/m3
2022-08-03 19:00 9.8 µg/m3 97.46 µg/m3 9.63 µg/m3 28.95 °C N/A 1,000.75 mbar 1.53 m/s 157.77 Deg 0.62 µg/m3
2022-08-03 18:00 9.93 µg/m3 100.91 µg/m3 7.19 µg/m3 30.33 °C N/A 1,000.40 mbar 1.7 m/s 250.23 Deg 1.12 µg/m3
2022-08-03 17:00 7.39 µg/m3 107.74 µg/m3 6.17 µg/m3 31.05 °C N/A 1,000.37 mbar 1.95 m/s 209.28 Deg 0.95 µg/m3
2022-08-03 16:00 6.16 µg/m3 106.39 µg/m3 7.61 µg/m3 31.75 °C N/A 1,000.34 mbar 2.48 m/s 144.98 Deg 1.03 µg/m3
2022-08-03 15:00 7.88 µg/m3 107.06 µg/m3 7.78 µg/m3 32.02 °C N/A 1,000.53 mbar 2.33 m/s 322.46 Deg 1.09 µg/m3
2022-08-03 14:00 9.76 µg/m3 109.55 µg/m3 8.38 µg/m3 31.47 °C N/A 1,001.03 mbar 2.4 m/s 244.35 Deg 1.31 µg/m3
2022-08-03 13:00 12.59 µg/m3 118.12 µg/m3 9.63 µg/m3 31.18 °C N/A 1,001.32 mbar 2.6 m/s 199.13 Deg 1.5 µg/m3
2022-08-03 12:00 10.29 µg/m3 107.24 µg/m3 8.19 µg/m3 30.86 °C N/A 1,001.65 mbar 2.64 m/s 231.38 Deg 1.46 µg/m3
2022-08-03 11:00 7.39 µg/m3 103.8 µg/m3 9.31 µg/m3 30.49 °C N/A 1,001.87 mbar 2.6 m/s 219.65 Deg 1.18 µg/m3
2022-08-03 10:00 9.62 µg/m3 97.14 µg/m3 10.39 µg/m3 30.12 °C N/A 1,001.77 mbar 2.72 m/s 246.7 Deg 1.79 µg/m3
2022-08-03 09:00 12 µg/m3 84.51 µg/m3 10.76 µg/m3 29.87 °C N/A 1,001.52 mbar 2.2 m/s 155.22 Deg 2.07 µg/m3
2022-08-03 08:00 22.28 µg/m3 64.17 µg/m3 9.16 µg/m3 28.36 °C N/A 1,001.34 mbar 1.56 m/s 105.65 Deg 3.62 µg/m3
2022-08-03 07:00 34.8 µg/m3 38.38 µg/m3 4.98 µg/m3 26.83 °C N/A 1,000.98 mbar 0.76 m/s 93.89 Deg 4.08 µg/m3
2022-08-03 06:00 20.69 µg/m3 45.74 µg/m3 2.95 µg/m3 25.26 °C N/A 1,000.62 mbar 0.66 m/s 338.02 Deg 0.99 µg/m3
2022-08-03 05:00 5.77 µg/m3 61 µg/m3 3.37 µg/m3 24.94 °C N/A 1,000.26 mbar 0.78 m/s 340.75 Deg 0.23 µg/m3
2022-08-03 04:00 6.68 µg/m3 54.24 µg/m3 3.92 µg/m3 24.89 °C N/A 1,000.16 mbar 0.72 m/s 334.94 Deg 0.34 µg/m3
2022-08-03 03:00 12.42 µg/m3 34.93 µg/m3 4.98 µg/m3 24.7 °C N/A 1,000.06 mbar 0.4 m/s 291.89 Deg 3.51 µg/m3
2022-08-03 02:00 10.18 µg/m3 41.2 µg/m3 5.11 µg/m3 25.19 °C N/A 1,000.41 mbar 0.28 m/s 281.25 Deg 0.6 µg/m3
2022-08-03 01:00 21.77 µg/m3 33.55 µg/m3 4.41 µg/m3 25.76 °C N/A 1,000.53 mbar 0.65 m/s 310.14 Deg 0.17 µg/m3
2022-08-03 00:00 11.77 µg/m3 49.36 µg/m3 4.07 µg/m3 26.33 °C N/A 1,000.64 mbar 0.53 m/s 170.23 Deg 0.32 µg/m3
2022-08-02 23:00 2.88 µg/m3 67.4 µg/m3 3.52 µg/m3 26.73 °C N/A 1,000.80 mbar 0.85 m/s 33.52 Deg 0.4 µg/m3
2022-08-02 22:00 3.32 µg/m3 69.27 µg/m3 3.28 µg/m3 27.1 °C N/A 1,000.78 mbar 0.97 m/s 37 Deg 0.33 µg/m3
2022-08-02 21:00 4.34 µg/m3 66.89 µg/m3 3.84 µg/m3 27.6 °C N/A 1,000.58 mbar 1.36 m/s 117.25 Deg 0.38 µg/m3
2022-08-02 20:00 5.01 µg/m3 64.21 µg/m3 5.24 µg/m3 28.03 °C N/A 1,000.05 mbar 1.45 m/s 30.37 Deg 0.29 µg/m3
2022-08-02 19:00 5.98 µg/m3 65.1 µg/m3 5.9 µg/m3 28.78 °C N/A 999.77 mbar 1.89 m/s 30.52 Deg 0.39 µg/m3
2022-08-02 18:00 2.56 µg/m3 66.38 µg/m3 6.68 µg/m3 30.39 °C N/A 999.45 mbar 1.37 m/s 254.23 Deg 0.56 µg/m3
2022-08-02 17:00 4.14 µg/m3 67.28 µg/m3 5.77 µg/m3 31.4 °C N/A 999.37 mbar 1.16 m/s 276.01 Deg 1.02 µg/m3
2022-08-02 16:00 3.01 µg/m3 69.71 µg/m3 7.81 µg/m3 31.08 °C N/A 999.47 mbar 0.94 m/s 327.09 Deg 0.61 µg/m3
2022-08-02 15:00 4.44 µg/m3 76.82 µg/m3 9.57 µg/m3 30.3 °C N/A 999.75 mbar 1.09 m/s 335.84 Deg 0.61 µg/m3
2022-08-02 14:00 7.92 µg/m3 88.34 µg/m3 10.2 µg/m3 29.95 °C N/A 1,000.03 mbar 1.09 m/s 329.03 Deg 0.68 µg/m3
2022-08-02 13:00 8.22 µg/m3 86.39 µg/m3 9.42 µg/m3 29.9 °C N/A 1,000.11 mbar 1.2 m/s 253.88 Deg 0.77 µg/m3
2022-08-02 12:00 9.81 µg/m3 86.31 µg/m3 8.04 µg/m3 29.99 °C N/A 1,000.23 mbar 1.73 m/s 208.65 Deg 1.43 µg/m3
2022-08-02 11:00 10.62 µg/m3 78.3 µg/m3 9.46 µg/m3 28.94 °C N/A 1,000.66 mbar 1.06 m/s 149.52 Deg 1.33 µg/m3
2022-08-02 10:00 8.81 µg/m3 80.41 µg/m3 9.99 µg/m3 29.26 °C N/A 1,000.46 mbar 0.93 m/s 304.86 Deg 1.18 µg/m3
2022-08-02 09:00 10.87 µg/m3 75.09 µg/m3 10.35 µg/m3 29.23 °C N/A 1,000.35 mbar 1.06 m/s 171.65 Deg 1.59 µg/m3
2022-08-02 08:00 10.9 µg/m3 71.06 µg/m3 12.45 µg/m3 28.31 °C N/A 1,000.47 mbar 0.9 m/s 177.38 Deg 1.28 µg/m3
2022-08-02 07:00 24.38 µg/m3 52.74 µg/m3 11.46 µg/m3 27.34 °C N/A 1,000.32 mbar 0.63 m/s 15.29 Deg 1.93 µg/m3
2022-08-02 06:00 33.71 µg/m3 26.92 µg/m3 8.74 µg/m3 25.49 °C N/A 1,000.19 mbar 0.43 m/s 209.92 Deg 4.49 µg/m3
2022-08-02 05:00 20.32 µg/m3 32.16 µg/m3 8.08 µg/m3 24.87 °C N/A 999.90 mbar 0.44 m/s 265.47 Deg -0.07 µg/m3
2022-08-02 04:00 16.55 µg/m3 28.96 µg/m3 7.91 µg/m3 25.28 °C N/A 999.83 mbar 0.3 m/s 256.49 Deg 0.61 µg/m3
2022-08-02 03:00 12.2 µg/m3 47.04 µg/m3 7.59 µg/m3 25.6 °C N/A 999.99 mbar 0.3 m/s 265.31 Deg 4.21 µg/m3
2022-08-02 02:00 8.37 µg/m3 49.7 µg/m3 6.81 µg/m3 26.08 °C N/A 1,000.10 mbar 0.42 m/s 241.9 Deg 0.87 µg/m3
2022-08-02 01:00 5.33 µg/m3 67.42 µg/m3 7.4 µg/m3 26.52 °C N/A 1,000.40 mbar 0.4 m/s 292.61 Deg 0.32 µg/m3
2022-08-02 00:00 7.45 µg/m3 70.06 µg/m3 9.33 µg/m3 26.87 °C N/A 1,000.68 mbar 0.69 m/s 342.75 Deg 0.36 µg/m3
2022-08-01 23:00 5.22 µg/m3 74.7 µg/m3 7.47 µg/m3 27.02 °C N/A 1,000.87 mbar 0.5 m/s 321.24 Deg 0.4 µg/m3
2022-08-01 22:00 4.05 µg/m3 82.13 µg/m3 7.23 µg/m3 27.34 °C N/A 1,000.87 mbar 0.6 m/s 259 Deg 0.4 µg/m3
2022-08-01 21:00 5.59 µg/m3 81.43 µg/m3 6.47 µg/m3 27.87 °C N/A 1,000.34 mbar 0.66 m/s 307.18 Deg 0.31 µg/m3
2022-08-01 20:00 4.61 µg/m3 85.14 µg/m3 6.02 µg/m3 28.11 °C N/A 999.88 mbar 0.68 m/s 318.87 Deg 0.48 µg/m3
2022-08-01 19:00 3.62 µg/m3 80.68 µg/m3 6.62 µg/m3 28.77 °C N/A 999.48 mbar 1.31 m/s 299.28 Deg 0.51 µg/m3
2022-08-01 18:00 6.6 µg/m3 75.61 µg/m3 8.04 µg/m3 29.72 °C N/A 999.12 mbar 1.68 m/s 252.77 Deg 1.18 µg/m3
2022-08-01 17:00 5.88 µg/m3 79.19 µg/m3 9.97 µg/m3 30.01 °C N/A 999.28 mbar 1.82 m/s 255.1 Deg 0.91 µg/m3
2022-08-01 16:00 8.88 µg/m3 77.67 µg/m3 10.93 µg/m3 30.05 °C N/A 999.39 mbar 1.62 m/s 240.92 Deg 1.82 µg/m3
2022-08-01 15:00 10.13 µg/m3 86.1 µg/m3 11.84 µg/m3 30.32 °C N/A 999.48 mbar 1.48 m/s 251.8 Deg 1.57 µg/m3
2022-08-01 14:00 10.12 µg/m3 97.44 µg/m3 14.07 µg/m3 30.56 °C N/A 999.74 mbar 1.42 m/s 224.93 Deg 1.38 µg/m3
2022-08-01 13:00 14.33 µg/m3 91.87 µg/m3 11.92 µg/m3 29.85 °C N/A 1,000.18 mbar 1.88 m/s 179.77 Deg 2.19 µg/m3
2022-08-01 12:00 8.64 µg/m3 94.8 µg/m3 12.26 µg/m3 30.48 °C N/A 1,000.53 mbar 1.66 m/s 224.7 Deg 2.13 µg/m3
2022-08-01 11:00 11.37 µg/m3 95.55 µg/m3 11.67 µg/m3 29.69 °C N/A 1,000.50 mbar 1.61 m/s 251.47 Deg 1.48 µg/m3
2022-08-01 10:00 11.89 µg/m3 89.82 µg/m3 9.48 µg/m3 29.95 °C N/A 1,000.34 mbar 1.77 m/s 280.37 Deg 2.65 µg/m3
2022-08-01 09:00 11.96 µg/m3 81.88 µg/m3 10.01 µg/m3 29.34 °C N/A 1,000.23 mbar 1.75 m/s 238.23 Deg 1.95 µg/m3
2022-08-01 08:00 19.79 µg/m3 66.69 µg/m3 10.39 µg/m3 28.58 °C N/A 1,000.03 mbar 1.62 m/s 191.53 Deg 3.81 µg/m3
2022-08-01 07:00 31.51 µg/m3 54.94 µg/m3 9.31 µg/m3 27.54 °C N/A 999.97 mbar 0.89 m/s 211.58 Deg 4.31 µg/m3
2022-08-01 06:00 25.52 µg/m3 49.58 µg/m3 6.66 µg/m3 26.5 °C N/A 999.70 mbar 0.87 m/s 155.83 Deg 2.23 µg/m3
2022-08-01 05:00 12.46 µg/m3 68.62 µg/m3 7.23 µg/m3 26.38 °C N/A 999.55 mbar 1.19 m/s 141.62 Deg 0.37 µg/m3
2022-08-01 04:00 15.97 µg/m3 62.76 µg/m3 7.3 µg/m3 26.71 °C N/A 999.45 mbar 1.05 m/s 163.22 Deg 0.8 µg/m3
2022-08-01 03:00 12.57 µg/m3 80.46 µg/m3 7.68 µg/m3 27.01 °C N/A 999.45 mbar 1.78 m/s 152.12 Deg 5.01 µg/m3
2022-08-01 02:00 7.71 µg/m3 71.78 µg/m3 8.36 µg/m3 26.62 °C N/A 999.53 mbar 0.9 m/s 167.23 Deg 0.81 µg/m3
2022-08-01 01:00 13.07 µg/m3 57.3 µg/m3 9.42 µg/m3 26.44 °C N/A 999.75 mbar 0.53 m/s 259.78 Deg 0.32 µg/m3
2022-08-01 00:00 18.71 µg/m3 59.87 µg/m3 9.08 µg/m3 26.6 °C N/A 1,000.04 mbar 0.49 m/s 242.72 Deg 0.52 µg/m3
2022-07-31 23:00 21.34 µg/m3 58.47 µg/m3 7.34 µg/m3 27.09 °C N/A 1,000.10 mbar 0.78 m/s 252.8 Deg 0.69 µg/m3
2022-07-31 22:00 4.32 µg/m3 89.01 µg/m3 7.02 µg/m3 27.54 °C N/A 1,000.15 mbar 0.77 m/s 171.15 Deg 0.5 µg/m3
2022-07-31 21:00 5.5 µg/m3 86.35 µg/m3 11.03 µg/m3 27.83 °C N/A 999.93 mbar 0.88 m/s 24.01 Deg 0.47 µg/m3
2022-07-31 20:00 6.05 µg/m3 85.4 µg/m3 8.97 µg/m3 28.05 °C N/A 999.53 mbar 1 m/s 178.92 Deg 0.43 µg/m3
2022-07-31 19:00 5.26 µg/m3 92.9 µg/m3 6.89 µg/m3 28.92 °C N/A 999.31 mbar 1.56 m/s 105.3 Deg 0.55 µg/m3
2022-07-31 18:00 2.59 µg/m3 91.08 µg/m3 9.38 µg/m3 30.29 °C N/A 999.08 mbar 1.52 m/s 323.53 Deg 0.52 µg/m3
2022-07-31 17:00 2.55 µg/m3 84.67 µg/m3 10.37 µg/m3 31.55 °C N/A 999.22 mbar 1.8 m/s 306.26 Deg 0.65 µg/m3
2022-07-31 16:00 4.39 µg/m3 98.58 µg/m3 10.59 µg/m3 31.93 °C N/A 999.44 mbar 1.84 m/s 192.1 Deg 0.75 µg/m3
2022-07-31 15:00 4.45 µg/m3 106.7 µg/m3 9.19 µg/m3 31.86 °C N/A 999.74 mbar 1.85 m/s 220.68 Deg 0.65 µg/m3
2022-07-31 14:00 2.75 µg/m3 97.19 µg/m3 9.27 µg/m3 31.7 °C N/A 1,000.23 mbar 1.71 m/s 169.47 Deg 0.6 µg/m3
2022-07-31 13:00 3.59 µg/m3 101.15 µg/m3 10.93 µg/m3 31.7 °C N/A 1,000.62 mbar 1.73 m/s 39.22 Deg 0.76 µg/m3
2022-07-31 12:00 4.66 µg/m3 99.05 µg/m3 11.1 µg/m3 31.94 °C N/A 1,000.84 mbar 1.55 m/s 176.15 Deg 0.88 µg/m3
2022-07-31 11:00 5.24 µg/m3 91.5 µg/m3 11.5 µg/m3 31.09 °C N/A 1,000.96 mbar 1.7 m/s 242.79 Deg 1.01 µg/m3
2022-07-31 10:00 4.44 µg/m3 81.06 µg/m3 11.41 µg/m3 31.52 °C N/A 1,000.86 mbar 1.97 m/s 85.88 Deg 0.95 µg/m3
2022-07-31 09:00 5.28 µg/m3 73.05 µg/m3 11.71 µg/m3 30.51 °C N/A 1,000.75 mbar 1.97 m/s 18.73 Deg 1.11 µg/m3
2022-07-31 08:00 9.78 µg/m3 62.44 µg/m3 9.55 µg/m3 29.11 °C N/A 1,000.51 mbar 1.57 m/s 15.6 Deg 1.75 µg/m3
2022-07-31 07:00 9.83 µg/m3 49.33 µg/m3 7.95 µg/m3 27.7 °C N/A 1,000.26 mbar 1.03 m/s 173.93 Deg 1.52 µg/m3
2022-07-31 06:00 9.62 µg/m3 48.69 µg/m3 8.19 µg/m3 26.27 °C N/A 999.93 mbar 1.3 m/s 350.3 Deg 0.53 µg/m3
2022-07-31 05:00 4.96 µg/m3 53.91 µg/m3 7.98 µg/m3 26.44 °C N/A 999.73 mbar 1.48 m/s 343.64 Deg 0.49 µg/m3
2022-07-31 04:00 4.86 µg/m3 60.57 µg/m3 6.77 µg/m3 26.87 °C N/A 999.73 mbar 1.3 m/s 331.65 Deg 0.62 µg/m3
2022-07-31 03:00 8.3 µg/m3 66.15 µg/m3 6.6 µg/m3 27.1 °C N/A 999.99 mbar 1.32 m/s 322.61 Deg 3.42 µg/m3
2022-07-31 02:00 2.17 µg/m3 68.92 µg/m3 6.28 µg/m3 27.35 °C N/A 1,000.26 mbar 1.21 m/s 323.1 Deg 1.02 µg/m3
2022-07-31 01:00 2.61 µg/m3 67 µg/m3 6.4 µg/m3 27.64 °C N/A 1,000.70 mbar 2.01 m/s 330.06 Deg 0.43 µg/m3
2022-07-31 00:00 4.79 µg/m3 67.99 µg/m3 8.4 µg/m3 27.33 °C N/A 1,001.12 mbar 1.94 m/s 300.49 Deg 0.26 µg/m3
2022-07-30 23:00 4.81 µg/m3 51.84 µg/m3 9.23 µg/m3 27.36 °C N/A 1,001.43 mbar 1.45 m/s 307.49 Deg 0.35 µg/m3
2022-07-30 22:00 1.93 µg/m3 55.32 µg/m3 9.67 µg/m3 27.68 °C N/A 1,001.45 mbar 1.45 m/s 295.52 Deg 0.4 µg/m3
2022-07-30 21:00 3.06 µg/m3 57.85 µg/m3 8.65 µg/m3 28.01 °C N/A 1,001.41 mbar 1.36 m/s 303.62 Deg 0.32 µg/m3
2022-07-30 20:00 2.7 µg/m3 58.12 µg/m3 9.23 µg/m3 28.63 °C N/A 1,001.15 mbar 1.14 m/s 326.59 Deg 0.48 µg/m3
2022-07-30 19:00 1.66 µg/m3 62.13 µg/m3 11.01 µg/m3 29.64 °C N/A 1,000.85 mbar 1.36 m/s 336.55 Deg 0.36 µg/m3
2022-07-30 18:00 2.02 µg/m3 67.08 µg/m3 10.61 µg/m3 31.15 °C N/A 1,000.36 mbar 1.41 m/s 316.92 Deg 0.36 µg/m3
2022-07-30 17:00 2.04 µg/m3 64.42 µg/m3 12.22 µg/m3 31.59 °C N/A 1,000.26 mbar 2.04 m/s 312.35 Deg 0.52 µg/m3
2022-07-30 16:00 2 µg/m3 62.55 µg/m3 13.49 µg/m3 31.83 °C N/A 1,000.66 mbar 1.94 m/s 303.08 Deg 0.52 µg/m3
2022-07-30 15:00 3.09 µg/m3 68 µg/m3 10.01 µg/m3 32.56 °C N/A 1,000.90 mbar 2.55 m/s 290.07 Deg 0.57 µg/m3
2022-07-30 14:00 3.4 µg/m3 76.63 µg/m3 8.08 µg/m3 33.94 °C N/A 1,001.05 mbar 1.74 m/s 328.08 Deg 0.57 µg/m3
2022-07-30 13:00 2.2 µg/m3 75.76 µg/m3 12.24 µg/m3 33.35 °C N/A 1,001.29 mbar 1.56 m/s 314.64 Deg 0.48 µg/m3
2022-07-30 12:00 2.22 µg/m3 74.09 µg/m3 9.89 µg/m3 32.89 °C N/A 1,001.49 mbar 1.56 m/s 317.74 Deg 0.6 µg/m3
2022-07-30 11:00 2.71 µg/m3 75.29 µg/m3 8.74 µg/m3 32.69 °C N/A 1,001.73 mbar 1.5 m/s 326.87 Deg 0.65 µg/m3
2022-07-30 10:00 3.31 µg/m3 71.69 µg/m3 7.95 µg/m3 32.15 °C N/A 1,001.67 mbar 1.63 m/s 322.34 Deg 0.86 µg/m3
2022-07-30 09:00 3.37 µg/m3 67.88 µg/m3 10.03 µg/m3 31.04 °C N/A 1,001.50 mbar 1.5 m/s 325.82 Deg 0.67 µg/m3
2022-07-30 08:00 5.25 µg/m3 65.02 µg/m3 9.23 µg/m3 29.26 °C N/A 1,001.35 mbar 1.5 m/s 331.03 Deg 0.97 µg/m3
2022-07-30 07:00 6.62 µg/m3 58.97 µg/m3 9.91 µg/m3 27.89 °C N/A 1,001.39 mbar 0.98 m/s 322.99 Deg 0.92 µg/m3
2022-07-30 06:00 12.28 µg/m3 45.3 µg/m3 9.74 µg/m3 26.28 °C N/A 1,001.05 mbar 0.58 m/s 297.76 Deg 0.8 µg/m3
2022-07-30 05:00 9.65 µg/m3 44.36 µg/m3 8.85 µg/m3 26.17 °C N/A 1,000.82 mbar 0.54 m/s 248.34 Deg 0.73 µg/m3
2022-07-30 04:00 4.29 µg/m3 59.68 µg/m3 9.25 µg/m3 26.8 °C N/A 1,000.87 mbar 0.54 m/s 319.36 Deg 1.72 µg/m3
2022-07-30 03:00 10.13 µg/m3 60.22 µg/m3 8.89 µg/m3 27 °C N/A 1,001.02 mbar 0.49 m/s 334.41 Deg 7.56 µg/m3
2022-07-30 02:00 4.02 µg/m3 64.63 µg/m3 8.63 µg/m3 27.63 °C N/A 1,001.40 mbar 0.48 m/s 243.31 Deg 1 µg/m3
2022-07-30 01:00 6.72 µg/m3 64.9 µg/m3 8.74 µg/m3 27.4 °C N/A 1,001.78 mbar 0.52 m/s 328.35 Deg 0.36 µg/m3
2022-07-30 00:00 7.12 µg/m3 66.85 µg/m3 9.23 µg/m3 27.92 °C N/A 1,002.22 mbar 0.66 m/s 331.27 Deg 0.42 µg/m3
2022-07-29 23:00 5.86 µg/m3 70.16 µg/m3 9.38 µg/m3 28.51 °C N/A 1,002.17 mbar 0.65 m/s 322.05 Deg 0.31 µg/m3
2022-07-29 22:00 7.53 µg/m3 69.81 µg/m3 11.16 µg/m3 29.12 °C N/A 1,002.19 mbar 0.79 m/s 302.62 Deg 0.39 µg/m3
2022-07-29 21:00 7.46 µg/m3 73.36 µg/m3 11.63 µg/m3 29.23 °C N/A 1,001.97 mbar 0.97 m/s 312.85 Deg 0.41 µg/m3
2022-07-29 20:00 15.21 µg/m3 65.24 µg/m3 12.09 µg/m3 29.75 °C N/A 1,001.49 mbar 0.81 m/s 301.04 Deg 0.44 µg/m3
2022-07-29 19:00 10.36 µg/m3 80.32 µg/m3 11.37 µg/m3 31.27 °C N/A 1,001.22 mbar 1.07 m/s 305.2 Deg 1.69 µg/m3
2022-07-29 18:00 5.33 µg/m3 89.05 µg/m3 12.03 µg/m3 32.72 °C N/A 1,000.87 mbar 1.04 m/s 302.48 Deg 0.71 µg/m3
2022-07-29 17:00 3.79 µg/m3 94.14 µg/m3 12.48 µg/m3 33.21 °C N/A 1,000.91 mbar 1.28 m/s 310.34 Deg 0.75 µg/m3
2022-07-29 16:00 5.39 µg/m3 90.61 µg/m3 13.73 µg/m3 32.55 °C N/A 1,001.29 mbar 1.43 m/s 172.82 Deg 0.82 µg/m3
2022-07-29 15:00 6.42 µg/m3 95.5 µg/m3 14.13 µg/m3 32.59 °C N/A 1,001.54 mbar 1.21 m/s 264.05 Deg 0.83 µg/m3
2022-07-29 14:00 11.93 µg/m3 107.21 µg/m3 14.39 µg/m3 31.83 °C N/A 1,001.83 mbar 1.38 m/s 248.67 Deg 1.32 µg/m3
2022-07-29 13:00 13.83 µg/m3 102.68 µg/m3 15.36 µg/m3 32.4 °C N/A 1,001.85 mbar 1.68 m/s 252.8 Deg 2.15 µg/m3
2022-07-29 12:00 14.92 µg/m3 98.6 µg/m3 15.15 µg/m3 32.42 °C N/A 1,001.91 mbar 1.67 m/s 231.2 Deg 2.52 µg/m3
2022-07-29 11:00 17.6 µg/m3 80.2 µg/m3 18.1 µg/m3 32.03 °C N/A 1,002.01 mbar 1.61 m/s 228.45 Deg 3.37 µg/m3
2022-07-29 10:00 21.42 µg/m3 64.7 µg/m3 18.25 µg/m3 31.69 °C N/A 1,001.92 mbar 1.5 m/s 233.92 Deg 5 µg/m3
2022-07-29 09:00 21.76 µg/m3 59.59 µg/m3 17.44 µg/m3 31.31 °C N/A 1,001.82 mbar 1.05 m/s 247.19 Deg 4.25 µg/m3
2022-07-29 08:00 28.87 µg/m3 47.65 µg/m3 16.44 µg/m3 29.21 °C N/A 1,001.56 mbar 1.4 m/s 167.03 Deg 8.03 µg/m3
2022-07-29 07:00 38.59 µg/m3 30.12 µg/m3 11.01 µg/m3 27.4 °C N/A 1,001.25 mbar 0.96 m/s 176.2 Deg 13.41 µg/m3
2022-07-29 06:00 13.62 µg/m3 46.59 µg/m3 8.59 µg/m3 26.57 °C N/A 1,000.78 mbar 0.62 m/s 264.92 Deg 1.72 µg/m3
2022-07-29 05:00 4.81 µg/m3 55.91 µg/m3 8.87 µg/m3 26.45 °C N/A 1,000.32 mbar 0.74 m/s 193.52 Deg 0.95 µg/m3
2022-07-29 04:00 4.32 µg/m3 54.85 µg/m3 9.61 µg/m3 26.56 °C N/A 1,000.30 mbar 0.87 m/s 166.73 Deg 1.03 µg/m3
2022-07-29 03:00 10.1 µg/m3 62.64 µg/m3 11.46 µg/m3 26.83 °C N/A 1,000.26 mbar 1 m/s 98.97 Deg 6.56 µg/m3
2022-07-29 02:00 5.64 µg/m3 58.08 µg/m3 11.69 µg/m3 26.99 °C N/A 1,000.39 mbar 0.85 m/s 111.62 Deg 1.85 µg/m3
2022-07-29 01:00 11.56 µg/m3 45.69 µg/m3 9.35 µg/m3 27.22 °C N/A 1,000.68 mbar 0.91 m/s 33.43 Deg 1.22 µg/m3
2022-07-29 00:00 6.07 µg/m3 57.35 µg/m3 8.93 µg/m3 27.4 °C N/A 1,001.04 mbar 1.15 m/s 42.33 Deg 0.99 µg/m3
2022-07-28 23:00 6.92 µg/m3 59.87 µg/m3 8.46 µg/m3 27.61 °C N/A 1,001.04 mbar 1.28 m/s 45.92 Deg 1.03 µg/m3
2022-07-28 22:00 4.15 µg/m3 71.78 µg/m3 10.18 µg/m3 27.83 °C N/A 1,000.97 mbar 1.11 m/s 21.86 Deg 1.11 µg/m3
2022-07-28 21:00 5.68 µg/m3 73.95 µg/m3 10.18 µg/m3 28.22 °C N/A 1,000.50 mbar 1.31 m/s 111.08 Deg 0.63 µg/m3
2022-07-28 20:00 7.28 µg/m3 75.36 µg/m3 13.09 µg/m3 29.14 °C N/A 999.58 mbar 1.31 m/s 116.07 Deg 0.55 µg/m3
2022-07-28 19:00 14.33 µg/m3 72.55 µg/m3 12.98 µg/m3 30.63 °C N/A 998.84 mbar 1.17 m/s 151 Deg 1.22 µg/m3
2022-07-28 18:00 10.94 µg/m3 78.3 µg/m3 12.86 µg/m3 30.92 °C N/A 998.24 mbar 1.21 m/s 233.65 Deg 1.44 µg/m3
2022-07-28 17:00 8.7 µg/m3 80 µg/m3 11.73 µg/m3 31.16 °C N/A 998.26 mbar 1.64 m/s 203.68 Deg 1.72 µg/m3
2022-07-28 16:00 5.23 µg/m3 81.09 µg/m3 13.11 µg/m3 31.05 °C N/A 998.38 mbar 1.83 m/s 276.17 Deg 1.43 µg/m3
2022-07-28 15:00 6.33 µg/m3 82.14 µg/m3 12.5 µg/m3 31.01 °C N/A 998.43 mbar 2 m/s 312.6 Deg 2.04 µg/m3
2022-07-28 14:00 6.73 µg/m3 86.73 µg/m3 12.35 µg/m3 30.67 °C N/A 998.63 mbar 2.2 m/s 236.52 Deg 1.93 µg/m3
2022-07-28 13:00 6.92 µg/m3 85.58 µg/m3 14.47 µg/m3 30.15 °C N/A 998.88 mbar 2.37 m/s 291.12 Deg 1.84 µg/m3
2022-07-28 12:00 8.39 µg/m3 84.68 µg/m3 16.1 µg/m3 30.02 °C N/A 998.88 mbar 2.85 m/s 257.4 Deg 2.03 µg/m3
2022-07-28 11:00 13.02 µg/m3 77.83 µg/m3 15.28 µg/m3 30.64 °C N/A 998.58 mbar 2.16 m/s 217.87 Deg 3.36 µg/m3
2022-07-28 10:00 5.72 µg/m3 75.51 µg/m3 12.67 µg/m3 30.63 °C N/A 998.15 mbar 1.08 m/s 286.41 Deg 1.86 µg/m3
2022-07-28 09:00 4.7 µg/m3 71.08 µg/m3 11.54 µg/m3 28.84 °C N/A 998.11 mbar 1.11 m/s 313.34 Deg 0.96 µg/m3
2022-07-28 08:00 6.05 µg/m3 67.32 µg/m3 11.03 µg/m3 28.31 °C N/A 997.68 mbar 1.15 m/s 328 Deg 0.91 µg/m3
2022-07-28 07:00 10.91 µg/m3 65.22 µg/m3 8.8 µg/m3 26.9 °C N/A 997.13 mbar 0.75 m/s 302.01 Deg 0.89 µg/m3
2022-07-28 06:00 13.31 µg/m3 55.7 µg/m3 7.72 µg/m3 25.98 °C N/A 996.72 mbar 1 m/s 292.69 Deg 0.6 µg/m3
2022-07-28 05:00 11.25 µg/m3 52.72 µg/m3 7.02 µg/m3 25.83 °C N/A 996.38 mbar 0.98 m/s 293.29 Deg 0.44 µg/m3
2022-07-28 04:00 5.81 µg/m3 68.28 µg/m3 4.66 µg/m3 26 °C N/A 996.62 mbar 0.73 m/s 308.24 Deg 0.59 µg/m3
2022-07-28 03:00 7.24 µg/m3 73.06 µg/m3 4.96 µg/m3 26.31 °C N/A 997.09 mbar 0.87 m/s 253.27 Deg 2.04 µg/m3
2022-07-28 02:00 2.73 µg/m3 66.32 µg/m3 5.68 µg/m3 26.36 °C N/A 997.31 mbar 0.64 m/s 318.54 Deg 1.1 µg/m3
2022-07-28 01:00 1.73 µg/m3 74.99 µg/m3 5.43 µg/m3 26.53 °C N/A 997.50 mbar 0.98 m/s 300.52 Deg 0.66 µg/m3
2022-07-28 00:00 1.97 µg/m3 81.98 µg/m3 8.1 µg/m3 26.77 °C N/A 997.79 mbar 0.83 m/s 314.04 Deg 0.29 µg/m3
2022-07-27 23:00 1.93 µg/m3 86.74 µg/m3 8.78 µg/m3 27.07 °C N/A 997.57 mbar 0.89 m/s 305.6 Deg 0.32 µg/m3
2022-07-27 22:00 2.34 µg/m3 93.58 µg/m3 9.14 µg/m3 27.43 °C N/A 997.45 mbar 0.88 m/s 308.81 Deg 0.33 µg/m3
2022-07-27 21:00 2.94 µg/m3 88.64 µg/m3 9.67 µg/m3 27.67 °C N/A 996.88 mbar 0.83 m/s 329.45 Deg 0.37 µg/m3
2022-07-27 20:00 3.6 µg/m3 92.39 µg/m3 9.8 µg/m3 28.44 °C N/A 996.34 mbar 0.93 m/s 313.19 Deg 0.37 µg/m3
2022-07-27 19:00 3.85 µg/m3 90.81 µg/m3 9.42 µg/m3 30.6 °C N/A 995.85 mbar 1.24 m/s 310.66 Deg 0.38 µg/m3
2022-07-27 18:00 5.15 µg/m3 89.59 µg/m3 8.53 µg/m3 33.48 °C N/A 995.44 mbar 0.93 m/s 333.57 Deg 0.43 µg/m3
2022-07-27 17:00 4.11 µg/m3 92.59 µg/m3 10.63 µg/m3 34.27 °C N/A 995.50 mbar 1.14 m/s 337.95 Deg 0.68 µg/m3
2022-07-27 16:00 5.91 µg/m3 90.67 µg/m3 12.05 µg/m3 34.6 °C N/A 995.74 mbar 1.29 m/s 168.92 Deg 0.86 µg/m3
2022-07-27 15:00 7.75 µg/m3 93.09 µg/m3 13.15 µg/m3 34 °C N/A 996.32 mbar 1.31 m/s 332.08 Deg 1.1 µg/m3
2022-07-27 14:00 6.13 µg/m3 95.49 µg/m3 13.96 µg/m3 33.36 °C N/A 996.67 mbar 1.88 m/s 101.7 Deg 0.97 µg/m3
2022-07-27 13:00 6.94 µg/m3 88.23 µg/m3 17.25 µg/m3 33.62 °C N/A 997.00 mbar 1.23 m/s 255.05 Deg 1.16 µg/m3
2022-07-27 12:00 9.55 µg/m3 84.35 µg/m3 16 µg/m3 32.61 °C N/A 997.33 mbar 1.33 m/s 250.82 Deg 1.9 µg/m3
2022-07-27 11:00 10 µg/m3 75.61 µg/m3 14.22 µg/m3 30.92 °C N/A 997.53 mbar 1.6 m/s 102.86 Deg 2.17 µg/m3
2022-07-27 10:00 8.78 µg/m3 72.02 µg/m3 14.32 µg/m3 29.8 °C N/A 997.28 mbar 2.14 m/s 26.87 Deg 2.17 µg/m3
2022-07-27 09:00 14.62 µg/m3 59.44 µg/m3 15.04 µg/m3 29.16 °C N/A 997.08 mbar 1.77 m/s 24.08 Deg 3.73 µg/m3
2022-07-27 08:00 10.61 µg/m3 51.7 µg/m3 14.6 µg/m3 28.23 °C N/A 996.75 mbar 1.62 m/s 26.97 Deg 3.23 µg/m3
2022-07-27 07:00 12.12 µg/m3 54.36 µg/m3 29.09 µg/m3 26.86 °C N/A 996.45 mbar 0.92 m/s 94.05 Deg 1.67 µg/m3
2022-07-27 06:00 8.4 µg/m3 51.67 µg/m3 15.02 µg/m3 26.37 °C N/A 996.13 mbar 1 m/s 96.11 Deg 0.57 µg/m3
2022-07-27 05:00 11.15 µg/m3 39.04 µg/m3 8.25 µg/m3 26.22 °C N/A 995.84 mbar 0.84 m/s 252.11 Deg 0.54 µg/m3
2022-07-27 04:00 9.76 µg/m3 47.04 µg/m3 7.34 µg/m3 26.53 °C N/A 995.88 mbar 1.08 m/s 344.75 Deg 0.29 µg/m3
2022-07-27 03:00 8.62 µg/m3 61.93 µg/m3 7.02 µg/m3 26.9 °C N/A 996.08 mbar 1.77 m/s 314.95 Deg 1.18 µg/m3
2022-07-27 02:00 3.12 µg/m3 71.42 µg/m3 7.06 µg/m3 27.01 °C N/A 996.77 mbar 1.97 m/s 303.02 Deg 0.68 µg/m3
2022-07-27 01:00 4.85 µg/m3 69.27 µg/m3 8.23 µg/m3 27.21 °C N/A 997.30 mbar 1.65 m/s 289.83 Deg 0.46 µg/m3
2022-07-27 00:00 4.87 µg/m3 71.93 µg/m3 7.21 µg/m3 27.46 °C N/A 997.50 mbar 1.82 m/s 292.42 Deg 0.58 µg/m3
2022-07-26 23:00 3.33 µg/m3 84.99 µg/m3 8.27 µg/m3 27.49 °C N/A 997.61 mbar 1.76 m/s 300.22 Deg 0.42 µg/m3
2022-07-26 22:00 1.84 µg/m3 83.08 µg/m3 7.83 µg/m3 27.49 °C N/A 997.69 mbar 1.65 m/s 303.98 Deg 0.54 µg/m3
2022-07-26 21:00 3.16 µg/m3 79.94 µg/m3 8.21 µg/m3 27.53 °C N/A 997.60 mbar 1.42 m/s 307.58 Deg 0.24 µg/m3
2022-07-26 20:00 4.69 µg/m3 72.87 µg/m3 9.02 µg/m3 27.94 °C N/A 997.37 mbar 1.23 m/s 293.21 Deg 0.18 µg/m3
2022-07-26 19:00 1.72 µg/m3 84.81 µg/m3 7.93 µg/m3 28.69 °C N/A 997.28 mbar 1.46 m/s 317.85 Deg 0.21 µg/m3
2022-07-26 18:00 2.25 µg/m3 94.75 µg/m3 8.08 µg/m3 30.05 °C N/A 997.17 mbar 1.6 m/s 328.58 Deg 0.49 µg/m3
2022-07-26 17:00 4.02 µg/m3 92.09 µg/m3 11.2 µg/m3 30.98 °C N/A 997.22 mbar 1.77 m/s 327.58 Deg 1.04 µg/m3
2022-07-26 16:00 2.82 µg/m3 88.12 µg/m3 10.08 µg/m3 32.02 °C N/A 997.61 mbar 1.41 m/s 336.58 Deg 0.42 µg/m3
2022-07-26 15:00 4.51 µg/m3 90.99 µg/m3 11.22 µg/m3 32.37 °C N/A 998.04 mbar 1.7 m/s 254.04 Deg 0.7 µg/m3
2022-07-26 14:00 4.24 µg/m3 87.87 µg/m3 12.09 µg/m3 33.11 °C N/A 998.32 mbar 1.67 m/s 347.18 Deg 0.54 µg/m3
2022-07-26 13:00 3.47 µg/m3 89.62 µg/m3 12.24 µg/m3 33 °C N/A 998.63 mbar 1.86 m/s 340.9 Deg 0.48 µg/m3
2022-07-26 12:00 5.28 µg/m3 86.12 µg/m3 12.52 µg/m3 34.28 °C N/A 998.65 mbar 1.47 m/s 332.85 Deg 1.48 µg/m3
2022-07-26 11:00 6.12 µg/m3 85.95 µg/m3 13.49 µg/m3 33.8 °C N/A 998.67 mbar 1.61 m/s 345.15 Deg 0.73 µg/m3
2022-07-26 10:00 5.88 µg/m3 76.33 µg/m3 15.45 µg/m3 32.87 °C N/A 998.59 mbar 1.41 m/s 263.44 Deg 0.73 µg/m3
2022-07-26 09:00 6.23 µg/m3 63.7 µg/m3 13.45 µg/m3 31.63 °C N/A 998.59 mbar 1.15 m/s 344.32 Deg 0.92 µg/m3
2022-07-26 08:00 7.68 µg/m3 53.08 µg/m3 9.86 µg/m3 29.12 °C N/A 998.75 mbar 1.19 m/s 318.07 Deg 1.49 µg/m3
2022-07-26 07:00 7.64 µg/m3 51.68 µg/m3 7.68 µg/m3 27.41 °C N/A 998.63 mbar 1.3 m/s 302.58 Deg 1.23 µg/m3
2022-07-26 06:00 6.81 µg/m3 50.9 µg/m3 5.73 µg/m3 26.68 °C N/A 998.53 mbar 1.66 m/s 295.68 Deg 0.75 µg/m3
2022-07-26 05:00 3.75 µg/m3 60.04 µg/m3 5.85 µg/m3 26.61 °C N/A 998.43 mbar 0.85 m/s 287.99 Deg 0.15 µg/m3
2022-07-26 04:00 2.56 µg/m3 88.15 µg/m3 5.68 µg/m3 26.79 °C N/A 998.58 mbar 0.89 m/s 293.88 Deg -0.02 µg/m3
2022-07-26 03:00 3.93 µg/m3 89.85 µg/m3 5.68 µg/m3 26.93 °C N/A 999.00 mbar 1.16 m/s 282.36 Deg 0.3 µg/m3
2022-07-26 02:00 1.96 µg/m3 93.82 µg/m3 6.68 µg/m3 27.41 °C N/A 999.37 mbar 1.57 m/s 300.58 Deg 0.17 µg/m3
2022-07-26 01:00 4.29 µg/m3 89.65 µg/m3 6.3 µg/m3 27.83 °C N/A 999.58 mbar 0.9 m/s 280.64 Deg 0.19 µg/m3
2022-07-26 00:00 3.94 µg/m3 94.76 µg/m3 7.53 µg/m3 28.37 °C N/A 999.80 mbar 1.5 m/s 294.26 Deg 0.2 µg/m3
2022-07-25 23:00 6.31 µg/m3 82.92 µg/m3 6.87 µg/m3 29.38 °C N/A 999.89 mbar 1.2 m/s 306.11 Deg 0.14 µg/m3
2022-07-25 22:00 7.57 µg/m3 78.95 µg/m3 7 µg/m3 29.12 °C N/A 1,000.09 mbar 0.59 m/s 306.04 Deg 0.1 µg/m3
2022-07-25 21:00 9.83 µg/m3 74.37 µg/m3 7.42 µg/m3 28.93 °C N/A 999.98 mbar 1.05 m/s 344.77 Deg 0.14 µg/m3
2022-07-25 20:00 6.74 µg/m3 80.33 µg/m3 8.85 µg/m3 29.65 °C N/A 999.73 mbar 0.92 m/s 325.82 Deg 0.17 µg/m3
2022-07-25 19:00 11.31 µg/m3 81.87 µg/m3 8.85 µg/m3 30.79 °C N/A 999.52 mbar 1.12 m/s 332.6 Deg 0.59 µg/m3
2022-07-25 18:00 8.45 µg/m3 92.94 µg/m3 10.23 µg/m3 32.41 °C N/A 999.36 mbar 1.37 m/s 326.07 Deg 0.76 µg/m3
2022-07-25 17:00 4.79 µg/m3 107.72 µg/m3 11.56 µg/m3 34.11 °C N/A 999.42 mbar 1.44 m/s 314.23 Deg 0.39 µg/m3
2022-07-25 16:00 5.96 µg/m3 108.79 µg/m3 11.46 µg/m3 34.75 °C N/A 999.64 mbar 1.43 m/s 327.05 Deg 0.47 µg/m3
2022-07-25 15:00 6.4 µg/m3 100.38 µg/m3 11.77 µg/m3 34.7 °C N/A 1,000.00 mbar 1.7 m/s 185.52 Deg 0.65 µg/m3
2022-07-25 14:00 18.5 µg/m3 85.7 µg/m3 11.1 µg/m3 35.2 °C N/A 1,000.42 mbar 1.47 m/s 346.72 Deg 12.2 µg/m3
2022-07-25 13:00 9.38 µg/m3 99.5 µg/m3 11.33 µg/m3 36.19 °C N/A 1,000.64 mbar 1.47 m/s 254.63 Deg 1.12 µg/m3
2022-07-25 12:00 9.87 µg/m3 98.68 µg/m3 11.69 µg/m3 36.01 °C N/A 1,000.95 mbar 1.21 m/s 315.02 Deg 1.21 µg/m3
2022-07-25 11:00 9.54 µg/m3 91.86 µg/m3 11.69 µg/m3 35.08 °C N/A 1,001.20 mbar 1.25 m/s 301.49 Deg 1 µg/m3
2022-07-25 10:00 7.64 µg/m3 89.81 µg/m3 12.11 µg/m3 34.26 °C N/A 1,001.17 mbar 1.22 m/s 297.22 Deg 0.89 µg/m3
2022-07-25 09:00 11.72 µg/m3 77.17 µg/m3 21.37 µg/m3 33.06 °C N/A 1,001.21 mbar 1.37 m/s 284.18 Deg 2.62 µg/m3
2022-07-25 08:00 23.64 µg/m3 55.92 µg/m3 16.76 µg/m3 31.28 °C N/A 1,001.38 mbar 1.12 m/s 292.16 Deg 3.45 µg/m3
2022-07-25 07:00 32.43 µg/m3 41.33 µg/m3 10.33 µg/m3 27.66 °C N/A 1,001.49 mbar 1 m/s 290.83 Deg 4.06 µg/m3
2022-07-25 06:00 18.43 µg/m3 60.28 µg/m3 8.85 µg/m3 26.39 °C N/A 1,001.55 mbar 1.16 m/s 296.69 Deg 0.49 µg/m3
2022-07-25 05:00 6.13 µg/m3 70.99 µg/m3 8.34 µg/m3 26.14 °C N/A 1,001.33 mbar 0.83 m/s 291.55 Deg -0.08 µg/m3
2022-07-25 04:00 4.88 µg/m3 74.14 µg/m3 7.55 µg/m3 26.17 °C N/A 1,001.36 mbar 0.57 m/s 307.93 Deg 0.2 µg/m3
2022-07-25 03:00 4.19 µg/m3 76.62 µg/m3 7.4 µg/m3 26.23 °C N/A 1,001.62 mbar 0.69 m/s 299.98 Deg 0.37 µg/m3
2022-07-25 02:00 2.27 µg/m3 75.7 µg/m3 7.42 µg/m3 26.31 °C N/A 1,002.10 mbar 0.78 m/s 304.8 Deg 0.21 µg/m3
2022-07-25 01:00 1.83 µg/m3 79.9 µg/m3 7.3 µg/m3 26.25 °C N/A 1,002.62 mbar 0.89 m/s 321 Deg 0.29 µg/m3
2022-07-25 00:00 1.29 µg/m3 80.26 µg/m3 8.08 µg/m3 26.39 °C N/A 1,003.08 mbar 0.93 m/s 290.51 Deg 0.21 µg/m3
2022-07-24 23:00 2.59 µg/m3 79.55 µg/m3 8.17 µg/m3 26.64 °C N/A 1,003.11 mbar 0.73 m/s 306.08 Deg 0.28 µg/m3
2022-07-24 22:00 5.82 µg/m3 75.86 µg/m3 7.85 µg/m3 26.89 °C N/A 1,003.00 mbar 1.04 m/s 310.24 Deg 0.28 µg/m3
2022-07-24 21:00 2.26 µg/m3 78.67 µg/m3 7.7 µg/m3 27.17 °C N/A 1,002.74 mbar 1.01 m/s 314.63 Deg 0.17 µg/m3
2022-07-24 20:00 2.06 µg/m3 84.89 µg/m3 9.02 µg/m3 27.81 °C N/A 1,002.44 mbar 1.21 m/s 315.33 Deg 0.24 µg/m3
2022-07-24 19:00 1.56 µg/m3 92.39 µg/m3 9.02 µg/m3 28.57 °C N/A 1,002.30 mbar 1.52 m/s 328.52 Deg 0.15 µg/m3
2022-07-24 18:00 1.18 µg/m3 85.9 µg/m3 8.42 µg/m3 29.73 °C N/A 1,002.20 mbar 1.78 m/s 325.68 Deg 0.19 µg/m3
2022-07-24 17:00 1.02 µg/m3 83.37 µg/m3 7 µg/m3 30.46 °C N/A 1,002.37 mbar 1.77 m/s 330.2 Deg 0.25 µg/m3
2022-07-24 16:00 0.99 µg/m3 75.8 µg/m3 9.31 µg/m3 30.78 °C N/A 1,002.83 mbar 1.88 m/s 327.4 Deg 0.32 µg/m3
2022-07-24 15:00 1.03 µg/m3 74.98 µg/m3 8.89 µg/m3 31.48 °C N/A 1,003.16 mbar 1.91 m/s 333.11 Deg 0.21 µg/m3
2022-07-24 14:00 0.77 µg/m3 75.97 µg/m3 9.59 µg/m3 31.53 °C N/A 1,003.66 mbar 2.04 m/s 311.68 Deg 0.2 µg/m3
2022-07-24 13:00 0.71 µg/m3 71.66 µg/m3 8.63 µg/m3 31.14 °C N/A 1,004.14 mbar 2.34 m/s 313.35 Deg 0.32 µg/m3
2022-07-24 12:00 1.03 µg/m3 75.54 µg/m3 8.51 µg/m3 30.85 °C N/A 1,004.42 mbar 2.09 m/s 322.22 Deg 0.3 µg/m3
2022-07-24 11:00 0.89 µg/m3 75.25 µg/m3 7.53 µg/m3 30.62 °C N/A 1,004.64 mbar 1.98 m/s 312.1 Deg 0.22 µg/m3
2022-07-24 10:00 1.35 µg/m3 79.17 µg/m3 9.27 µg/m3 30.21 °C N/A 1,004.47 mbar 2.12 m/s 304.63 Deg 0.16 µg/m3
2022-07-24 09:00 1.58 µg/m3 82.47 µg/m3 9.46 µg/m3 29.58 °C N/A 1,004.41 mbar 1.73 m/s 333.97 Deg 0.28 µg/m3
2022-07-24 08:00 1.8 µg/m3 75.17 µg/m3 8.02 µg/m3 28.32 °C N/A 1,004.30 mbar 1.61 m/s 251.95 Deg 0.25 µg/m3
2022-07-24 07:00 3.26 µg/m3 59.4 µg/m3 8.17 µg/m3 26.63 °C N/A 1,004.20 mbar 1.29 m/s 342.06 Deg 0.34 µg/m3
2022-07-24 06:00 2.83 µg/m3 56.24 µg/m3 10.9 µg/m3 25.32 °C N/A 1,004.36 mbar 0.81 m/s 329.55 Deg 0.21 µg/m3
2022-07-24 05:00 1.97 µg/m3 59.9 µg/m3 10.42 µg/m3 25.28 °C N/A 1,004.18 mbar 1.05 m/s 339.19 Deg 0.13 µg/m3
2022-07-24 04:00 3.03 µg/m3 56.85 µg/m3 7.68 µg/m3 25.49 °C N/A 1,004.16 mbar 0.84 m/s 324.98 Deg 0.16 µg/m3
2022-07-24 03:00 4.08 µg/m3 63 µg/m3 6.4 µg/m3 25.5 °C N/A 1,004.25 mbar 0.83 m/s 338.98 Deg 0.32 µg/m3
2022-07-24 02:00 1.63 µg/m3 64.85 µg/m3 6.74 µg/m3 25.4 °C N/A 1,004.61 mbar 0.66 m/s 328.75 Deg 0.15 µg/m3
2022-07-24 01:00 3.16 µg/m3 63.59 µg/m3 6.6 µg/m3 25.75 °C N/A 1,005.01 mbar 0.74 m/s 311.73 Deg 0.06 µg/m3
2022-07-24 00:00 4.22 µg/m3 65.36 µg/m3 6.68 µg/m3 25.91 °C N/A 1,005.32 mbar 0.73 m/s 319.77 Deg -0.01 µg/m3
2022-07-23 23:00 4.55 µg/m3 66.17 µg/m3 6.62 µg/m3 26.27 °C N/A 1,005.40 mbar 0.68 m/s 314.24 Deg 0.12 µg/m3
2022-07-23 22:00 4.39 µg/m3 67.62 µg/m3 7.08 µg/m3 26.91 °C N/A 1,005.32 mbar 0.92 m/s 304.48 Deg -0.09 µg/m3
2022-07-23 21:00 4.41 µg/m3 71.05 µg/m3 5.85 µg/m3 27.52 °C N/A 1,005.00 mbar 0.82 m/s 317.79 Deg 0.71 µg/m3
2022-07-23 20:00 6.59 µg/m3 81.11 µg/m3 6.6 µg/m3 28.52 °C N/A 1,004.42 mbar 0.99 m/s 317.52 Deg 1.08 µg/m3
2022-07-23 19:00 3.46 µg/m3 90.78 µg/m3 7.83 µg/m3 29.67 °C N/A 1,004.28 mbar 1.46 m/s 313.75 Deg 0.27 µg/m3
2022-07-23 18:00 2.96 µg/m3 93.84 µg/m3 7.98 µg/m3 31.21 °C N/A 1,004.01 mbar 1.67 m/s 315.15 Deg 0.28 µg/m3
2022-07-23 17:00 2.6 µg/m3 87.42 µg/m3 8.44 µg/m3 31.46 °C N/A 1,004.22 mbar 1.47 m/s 340.17 Deg 0.27 µg/m3
2022-07-23 16:00 4.03 µg/m3 86 µg/m3 8.87 µg/m3 31.78 °C N/A 1,004.39 mbar 1.9 m/s 341.13 Deg 0.34 µg/m3
2022-07-23 15:00 4.43 µg/m3 85.28 µg/m3 10.29 µg/m3 32.32 °C N/A 1,004.40 mbar 1.86 m/s 335.47 Deg 0.19 µg/m3
2022-07-23 14:00 4.61 µg/m3 84.05 µg/m3 9.52 µg/m3 32.68 °C N/A 1,004.59 mbar 1.46 m/s 313.78 Deg 0.33 µg/m3
2022-07-23 13:00 4.28 µg/m3 84.05 µg/m3 10.52 µg/m3 32.54 °C N/A 1,004.78 mbar 1.61 m/s 330.35 Deg 0.35 µg/m3
2022-07-23 12:00 4.53 µg/m3 81.84 µg/m3 10.8 µg/m3 32.55 °C N/A 1,005.04 mbar 1.47 m/s 321.43 Deg 0.58 µg/m3
2022-07-23 11:00 4.32 µg/m3 82.53 µg/m3 11.63 µg/m3 32.23 °C N/A 1,005.16 mbar 1.28 m/s 336.06 Deg 0.61 µg/m3
2022-07-23 10:00 5.02 µg/m3 87.07 µg/m3 13.07 µg/m3 31.49 °C N/A 1,005.02 mbar 1.49 m/s 313.27 Deg 0.59 µg/m3
2022-07-23 09:00 5.87 µg/m3 84.97 µg/m3 14.53 µg/m3 30.14 °C N/A 1,005.01 mbar 1.38 m/s 312.62 Deg 0.69 µg/m3
2022-07-23 08:00 8.78 µg/m3 71.22 µg/m3 15.4 µg/m3 28.74 °C N/A 1,005.00 mbar 0.94 m/s 312.11 Deg 0.7 µg/m3
2022-07-23 07:00 26.38 µg/m3 47.03 µg/m3 14.36 µg/m3 26.64 °C N/A 1,004.79 mbar 0.49 m/s 311.23 Deg 2.43 µg/m3
2022-07-23 06:00 24.48 µg/m3 31.68 µg/m3 13.13 µg/m3 24.99 °C N/A 1,004.75 mbar 0.51 m/s 316.05 Deg 6.81 µg/m3
2022-07-23 05:00 37.29 µg/m3 13.56 µg/m3 10.37 µg/m3 24.71 °C N/A 1,004.58 mbar 0.32 m/s 301.9 Deg 7.43 µg/m3
2022-07-23 04:00 31.59 µg/m3 20.41 µg/m3 10.63 µg/m3 24.79 °C N/A 1,004.44 mbar 0.32 m/s 276.13 Deg 1.36 µg/m3
2022-07-23 03:00 21.87 µg/m3 36.14 µg/m3 12.26 µg/m3 25.24 °C N/A 1,004.56 mbar 0.34 m/s 309.97 Deg 0.48 µg/m3
2022-07-23 02:00 19.48 µg/m3 39.91 µg/m3 12.5 µg/m3 24.37 °C N/A 1,004.66 mbar 0.55 m/s 290.22 Deg -0.01 µg/m3
2022-07-23 01:00 29.42 µg/m3 23 µg/m3 11.22 µg/m3 25.27 °C N/A 1,004.76 mbar 0.52 m/s 257.62 Deg 0.83 µg/m3
2022-07-23 00:00 13.39 µg/m3 49.77 µg/m3 8.46 µg/m3 26.15 °C N/A 1,004.83 mbar 0.39 m/s 300.36 Deg 0.28 µg/m3
2022-07-22 23:00 4.79 µg/m3 61.3 µg/m3 7.93 µg/m3 26.55 °C N/A 1,005.00 mbar 0.44 m/s 309.88 Deg 0.21 µg/m3
2022-07-22 22:00 2.46 µg/m3 68.16 µg/m3 8.02 µg/m3 26.87 °C N/A 1,004.85 mbar 0.62 m/s 315.56 Deg 0.13 µg/m3
2022-07-22 21:00 3.08 µg/m3 71.96 µg/m3 8.91 µg/m3 27.3 °C N/A 1,004.39 mbar 0.69 m/s 341.01 Deg 0 µg/m3
2022-07-22 20:00 3.36 µg/m3 76.24 µg/m3 10.48 µg/m3 28.22 °C N/A 1,003.88 mbar 1.2 m/s 250.29 Deg 0.23 µg/m3
2022-07-22 19:00 4.73 µg/m3 85.57 µg/m3 10.52 µg/m3 29.89 °C N/A 1,003.61 mbar 1.16 m/s 297.65 Deg 0.25 µg/m3
2022-07-22 18:00 4.34 µg/m3 90.99 µg/m3 11.35 µg/m3 31.36 °C N/A 1,003.46 mbar 1.06 m/s 274.42 Deg 0.52 µg/m3
2022-07-22 17:00 4.83 µg/m3 96.09 µg/m3 11.29 µg/m3 32.41 °C N/A 1,003.40 mbar 1.1 m/s 264.57 Deg 0.59 µg/m3
2022-07-22 16:00 9.41 µg/m3 92.19 µg/m3 11.6 µg/m3 31.18 °C N/A 1,003.47 mbar 1.28 m/s 220.67 Deg 1.36 µg/m3
2022-07-22 15:00 6.68 µg/m3 94.54 µg/m3 13.15 µg/m3 30.95 °C N/A 1,003.69 mbar 1.65 m/s 173.12 Deg 0.85 µg/m3
2022-07-22 14:00 7.01 µg/m3 94.61 µg/m3 14.64 µg/m3 30.88 °C N/A 1,003.91 mbar 2.18 m/s 22.03 Deg 0.93 µg/m3
2022-07-22 13:00 7.87 µg/m3 98.57 µg/m3 12.24 µg/m3 31.6 °C N/A 1,004.02 mbar 1.82 m/s 263.41 Deg 1 µg/m3
2022-07-22 12:00 6.27 µg/m3 98.04 µg/m3 11.84 µg/m3 32.08 °C N/A 1,004.17 mbar 1.82 m/s 197.12 Deg 1.13 µg/m3
2022-07-22 11:00 6.51 µg/m3 93.58 µg/m3 15.06 µg/m3 31.22 °C N/A 1,004.32 mbar 1.57 m/s 175.58 Deg 0.92 µg/m3
2022-07-22 10:00 10.76 µg/m3 93.66 µg/m3 14.87 µg/m3 30.65 °C N/A 1,004.30 mbar 1.48 m/s 155.12 Deg 1.76 µg/m3
2022-07-22 09:00 10 µg/m3 84.12 µg/m3 14.15 µg/m3 29.42 °C N/A 1,004.19 mbar 1.08 m/s 255.86 Deg 1.66 µg/m3
2022-07-22 08:00 9.8 µg/m3 78.89 µg/m3 15.96 µg/m3 28.03 °C N/A 1,003.94 mbar 0.84 m/s 93.65 Deg 1.12 µg/m3
2022-07-22 07:00 26.37 µg/m3 55.15 µg/m3 22.26 µg/m3 26.66 °C N/A 1,003.72 mbar 0.72 m/s 332.42 Deg 2.51 µg/m3
2022-07-22 06:00 42.92 µg/m3 30.29 µg/m3 19.82 µg/m3 24.91 °C N/A 1,003.59 mbar 0.5 m/s 310.98 Deg 6.38 µg/m3
2022-07-22 05:00 40.16 µg/m3 19.89 µg/m3 15.51 µg/m3 23.89 °C N/A 1,003.33 mbar 0.38 m/s 278.57 Deg 5.23 µg/m3
2022-07-22 04:00 16.7 µg/m3 48.87 µg/m3 15.32 µg/m3 24.36 °C N/A 1,003.19 mbar 0.39 m/s 251.44 Deg 1.6 µg/m3
2022-07-22 03:00 9.92 µg/m3 52.4 µg/m3 10.93 µg/m3 24.98 °C N/A 1,003.28 mbar 0.31 m/s 300.31 Deg 0.2 µg/m3
2022-07-22 02:00 1.7 µg/m3 67.76 µg/m3 13.39 µg/m3 25.65 °C N/A 1,003.45 mbar 0.37 m/s 313.84 Deg 0.22 µg/m3
2022-07-22 01:00 6.99 µg/m3 -169.5 µg/m3 14.72 µg/m3 26.06 °C N/A 1,003.88 mbar 0.37 m/s 297.76 Deg -0 µg/m3
2022-07-22 00:00 13.08 µg/m3 50.03 µg/m3 11.99 µg/m3 26.44 °C N/A 1,004.17 mbar 0.45 m/s 277.46 Deg 0.11 µg/m3
2022-07-21 23:00 6.17 µg/m3 67.73 µg/m3 12.03 µg/m3 26.83 °C N/A 1,004.28 mbar 0.4 m/s 284.54 Deg 0.2 µg/m3
2022-07-21 22:00 4.4 µg/m3 78.11 µg/m3 13.24 µg/m3 27.09 °C N/A 1,004.31 mbar 0.67 m/s 337.41 Deg 0.14 µg/m3
2022-07-21 21:00 4.41 µg/m3 87.51 µg/m3 14.3 µg/m3 27.3 °C N/A 1,003.99 mbar 0.8 m/s 181.32 Deg 0.31 µg/m3
2022-07-21 20:00 3.69 µg/m3 88.61 µg/m3 13.15 µg/m3 27.68 °C N/A 1,003.64 mbar 1.2 m/s 16.47 Deg 0.14 µg/m3
2022-07-21 19:00 4.76 µg/m3 85.55 µg/m3 13.9 µg/m3 28.39 °C N/A 1,003.41 mbar 1.81 m/s 20.23 Deg 0.32 µg/m3
2022-07-21 18:00 5.55 µg/m3 93.77 µg/m3 13.73 µg/m3 29.54 °C N/A 1,003.06 mbar 2.01 m/s 30.27 Deg 0.46 µg/m3
2022-07-21 17:00 5.36 µg/m3 100.92 µg/m3 14.68 µg/m3 30.31 °C N/A 1,003.34 mbar 1.54 m/s 20.95 Deg 0.6 µg/m3
2022-07-21 16:00 5.28 µg/m3 103.97 µg/m3 8.89 µg/m3 30.4 °C N/A 1,003.66 mbar 1.98 m/s 6.45 Deg 0.72 µg/m3
2022-07-21 15:00 4.94 µg/m3 108.58 µg/m3 10.84 µg/m3 31.05 °C N/A 1,003.83 mbar 2.34 m/s 8.27 Deg 0.51 µg/m3
2022-07-21 14:00 6.99 µg/m3 108.65 µg/m3 12.81 µg/m3 31.95 °C N/A 1,003.96 mbar 1.37 m/s 171.74 Deg 1.27 µg/m3
2022-07-21 13:00 13.14 µg/m3 109.93 µg/m3 14.24 µg/m3 31.66 °C N/A 1,004.10 mbar 2.02 m/s 153.58 Deg 1.23 µg/m3
2022-07-21 12:00 10.76 µg/m3 107.82 µg/m3 14.77 µg/m3 31.84 °C N/A 1,004.44 mbar 1.62 m/s 291.03 Deg 1.25 µg/m3
2022-07-21 11:00 6.69 µg/m3 100.63 µg/m3 16.08 µg/m3 30.82 °C N/A 1,004.77 mbar 1.56 m/s 154.02 Deg 0.95 µg/m3
2022-07-21 10:00 6.56 µg/m3 100.43 µg/m3 17.4 µg/m3 29.85 °C N/A 1,004.83 mbar 1.69 m/s 102.2 Deg 0.7 µg/m3
2022-07-21 09:00 7.15 µg/m3 100.2 µg/m3 18.14 µg/m3 28.9 °C N/A 1,004.91 mbar 1.39 m/s 14.35 Deg 0.83 µg/m3
2022-07-21 08:00 12.57 µg/m3 88.37 µg/m3 17.02 µg/m3 28.09 °C N/A 1,004.83 mbar 1.17 m/s 265.87 Deg 1.29 µg/m3
2022-07-21 07:00 21.2 µg/m3 72.11 µg/m3 14.94 µg/m3 26.77 °C N/A 1,004.51 mbar 0.77 m/s 351.67 Deg 1.21 µg/m3
2022-07-21 06:00 21.01 µg/m3 63.88 µg/m3 14.19 µg/m3 25.4 °C N/A 1,004.30 mbar 0.52 m/s 314.44 Deg 0.21 µg/m3
2022-07-21 05:00 10.29 µg/m3 78.57 µg/m3 14.51 µg/m3 25.18 °C N/A 1,004.15 mbar 0.45 m/s 311.19 Deg -0.02 µg/m3
2022-07-21 04:00 11.02 µg/m3 75.34 µg/m3 14.58 µg/m3 25.44 °C N/A 1,004.04 mbar 0.53 m/s 319.31 Deg -0.09 µg/m3
2022-07-21 03:00 10.95 µg/m3 74.14 µg/m3 13.79 µg/m3 25.52 °C N/A 1,004.22 mbar 0.27 m/s 262.54 Deg 0.19 µg/m3
2022-07-21 02:00 8.36 µg/m3 77.06 µg/m3 17.55 µg/m3 25.78 °C N/A 1,004.34 mbar 0.65 m/s 286.33 Deg 0.12 µg/m3
2022-07-21 01:00 16.74 µg/m3 75.91 µg/m3 14.43 µg/m3 26.16 °C N/A 1,004.60 mbar 0.57 m/s 281.34 Deg 0.06 µg/m3
2022-07-21 00:00 37.93 µg/m3 52.04 µg/m3 6.38 µg/m3 26.57 °C N/A 1,004.89 mbar 0.55 m/s 253.85 Deg 0.3 µg/m3
2022-07-20 23:00 8.48 µg/m3 102.01 µg/m3 4.96 µg/m3 26.96 °C N/A 1,005.11 mbar 0.43 m/s 243.4 Deg 0.16 µg/m3
2022-07-20 22:00 5.81 µg/m3 116.59 µg/m3 6.04 µg/m3 27.27 °C N/A 1,005.12 mbar 0.92 m/s 146.15 Deg 0.21 µg/m3
2022-07-20 21:00 8.95 µg/m3 109.44 µg/m3 8.8 µg/m3 27.62 °C N/A 1,004.75 mbar 0.96 m/s 173.57 Deg 0.25 µg/m3
2022-07-20 20:00 9.49 µg/m3 112.09 µg/m3 13.32 µg/m3 28.12 °C N/A 1,004.42 mbar 0.92 m/s 14.74 Deg 0.22 µg/m3
2022-07-20 19:00 8.18 µg/m3 115.46 µg/m3 14.49 µg/m3 28.86 °C N/A 1,004.22 mbar 1.24 m/s 179.71 Deg 0.4 µg/m3
2022-07-20 18:00 7.21 µg/m3 119.28 µg/m3 10.78 µg/m3 29.78 °C N/A 1,004.06 mbar 1.66 m/s 30.27 Deg 0.44 µg/m3
2022-07-20 17:00 7.54 µg/m3 118.4 µg/m3 11.33 µg/m3 31.28 °C N/A 1,003.86 mbar 1.36 m/s 281.74 Deg 0.59 µg/m3
2022-07-20 16:00 6.28 µg/m3 110.37 µg/m3 11.73 µg/m3 30.98 °C N/A 1,004.31 mbar 1.78 m/s 230.55 Deg 0.79 µg/m3
2022-07-20 15:00 11.64 µg/m3 106.01 µg/m3 11.22 µg/m3 30.72 °C N/A 1,004.65 mbar 1.78 m/s 238.93 Deg 1.07 µg/m3
2022-07-20 14:00 15.73 µg/m3 109.1 µg/m3 11.2 µg/m3 30.88 °C N/A 1,004.88 mbar 2.27 m/s 250.33 Deg 1.97 µg/m3
2022-07-20 13:00 16.31 µg/m3 111.38 µg/m3 9.52 µg/m3 30.65 °C N/A 1,005.27 mbar 2.49 m/s 230.85 Deg 2.01 µg/m3
2022-07-20 12:00 13.4 µg/m3 113.4 µg/m3 9.46 µg/m3 30.47 °C N/A 1,005.59 mbar 2.4 m/s 220.52 Deg 1.43 µg/m3
2022-07-20 11:00 12.22 µg/m3 112.38 µg/m3 14.85 µg/m3 30.23 °C N/A 1,005.48 mbar 2.44 m/s 181.85 Deg 1.38 µg/m3
2022-07-20 10:00 19.63 µg/m3 99.35 µg/m3 13.85 µg/m3 30.18 °C N/A 1,005.37 mbar 2.31 m/s 165.58 Deg 2.89 µg/m3
2022-07-20 09:00 0 µg/m3 0 µg/m3 3.07 µg/m3 29.06 °C N/A 1,005.09 mbar 2.09 m/s 231.92 Deg 0 µg/m3
2022-07-20 08:00 22.78 µg/m3 72.66 µg/m3 3.52 µg/m3 27.89 °C N/A 1,004.92 mbar 1.88 m/s 208.63 Deg 3.88 µg/m3
2022-07-20 07:00 20.8 µg/m3 66.08 µg/m3 15.49 µg/m3 27.31 °C N/A 1,004.61 mbar 1.38 m/s 189.92 Deg 1.35 µg/m3
2022-07-20 06:00 31.41 µg/m3 43.74 µg/m3 24.47 µg/m3 26 °C N/A 1,004.28 mbar 0.5 m/s 187.5 Deg 0.71 µg/m3
2022-07-20 05:00 17.58 µg/m3 63.49 µg/m3 17.44 µg/m3 25.42 °C N/A 1,003.97 mbar 0.45 m/s 239.98 Deg -0.26 µg/m3
2022-07-20 04:00 16.33 µg/m3 59.86 µg/m3 12.54 µg/m3 25.5 °C N/A 1,003.76 mbar 0.39 m/s 319.16 Deg 0.09 µg/m3
2022-07-20 03:00 13.09 µg/m3 64.57 µg/m3 14.43 µg/m3 25.61 °C N/A 1,003.72 mbar 0.42 m/s 275.41 Deg 0.32 µg/m3

It is to be noted that the data is provisional and subject to quality assurance procedures. For validated data kindly refer your request to contact.air@era.org.mt